<?xml version="1.0" encoding="UTF-8" standalone="no" ?>
<gpx xmlns="http://www.topografix.com/GPX/1/1" xmlns:xsi="http://www.w3.org/2001/XMLSchema-instance" xsi:schemaLocation="http://www.topografix.com/GPX/1/1 http://www.topografix.com/GPX/1/1/gpx.xsd" version="1.1" creator="VisuGPX - https://www.visugpx.com">
  <metadata>
    <name>Senanque la Debroussède</name>
    <desc><![CDATA[Balade au départ de Gordes passant par Sénanque et la Débroussède.]]></desc>
  </metadata>
  <trk>
    <name><![CDATA[2018-02-19 15:19:34]]></name>
    <trkseg>
      <trkpt lat="43.91407" lon="5.19576">
        <ele>370.73</ele>
        <time>2018-02-19T08:34:11Z</time>
      </trkpt>
      <trkpt lat="43.91407" lon="5.19576">
        <ele>370.73</ele>
        <time>2018-02-19T08:34:12Z</time>
      </trkpt>
      <trkpt lat="43.91406" lon="5.19576">
        <ele>370.24</ele>
        <time>2018-02-19T08:34:41Z</time>
      </trkpt>
      <trkpt lat="43.91407" lon="5.19576">
        <ele>370.73</ele>
        <time>2018-02-19T08:35:07Z</time>
      </trkpt>
      <trkpt lat="43.91406" lon="5.19575">
        <ele>369.28</ele>
        <time>2018-02-19T08:35:21Z</time>
      </trkpt>
      <trkpt lat="43.91407" lon="5.19572">
        <ele>369.28</ele>
        <time>2018-02-19T08:35:30Z</time>
      </trkpt>
      <trkpt lat="43.91408" lon="5.19576">
        <ele>369.28</ele>
        <time>2018-02-19T08:35:42Z</time>
      </trkpt>
      <trkpt lat="43.91411" lon="5.19575">
        <ele>370.73</ele>
        <time>2018-02-19T08:35:57Z</time>
      </trkpt>
      <trkpt lat="43.91408" lon="5.1957">
        <ele>370.73</ele>
        <time>2018-02-19T08:36:11Z</time>
      </trkpt>
      <trkpt lat="43.91408" lon="5.19565">
        <ele>369.28</ele>
        <time>2018-02-19T08:36:34Z</time>
      </trkpt>
      <trkpt lat="43.91411" lon="5.19553">
        <ele>369.28</ele>
        <time>2018-02-19T08:36:45Z</time>
      </trkpt>
      <trkpt lat="43.91421" lon="5.19533">
        <ele>371.21</ele>
        <time>2018-02-19T08:37:04Z</time>
      </trkpt>
      <trkpt lat="43.91426" lon="5.19527">
        <ele>371.21</ele>
        <time>2018-02-19T08:37:10Z</time>
      </trkpt>
      <trkpt lat="43.91443" lon="5.19513">
        <ele>371.69</ele>
        <time>2018-02-19T08:37:29Z</time>
      </trkpt>
      <trkpt lat="43.91462" lon="5.195">
        <ele>372.17</ele>
        <time>2018-02-19T08:37:49Z</time>
      </trkpt>
      <trkpt lat="43.91486" lon="5.19489">
        <ele>373.13</ele>
        <time>2018-02-19T08:38:10Z</time>
      </trkpt>
      <trkpt lat="43.91508" lon="5.1948">
        <ele>373.13</ele>
        <time>2018-02-19T08:38:31Z</time>
      </trkpt>
      <trkpt lat="43.91531" lon="5.19473">
        <ele>372.65</ele>
        <time>2018-02-19T08:38:53Z</time>
      </trkpt>
      <trkpt lat="43.91553" lon="5.19468">
        <ele>373.13</ele>
        <time>2018-02-19T08:39:14Z</time>
      </trkpt>
      <trkpt lat="43.91555" lon="5.19468">
        <ele>373.13</ele>
        <time>2018-02-19T08:39:16Z</time>
      </trkpt>
      <trkpt lat="43.91577" lon="5.19469">
        <ele>373.61</ele>
        <time>2018-02-19T08:39:36Z</time>
      </trkpt>
      <trkpt lat="43.91597" lon="5.1947">
        <ele>374.57</ele>
        <time>2018-02-19T08:39:56Z</time>
      </trkpt>
      <trkpt lat="43.91616" lon="5.19468">
        <ele>372.65</ele>
        <time>2018-02-19T08:40:16Z</time>
      </trkpt>
      <trkpt lat="43.91639" lon="5.19464">
        <ele>372.17</ele>
        <time>2018-02-19T08:40:36Z</time>
      </trkpt>
      <trkpt lat="43.91661" lon="5.19448">
        <ele>371.69</ele>
        <time>2018-02-19T08:40:58Z</time>
      </trkpt>
      <trkpt lat="43.91672" lon="5.19422">
        <ele>374.09</ele>
        <time>2018-02-19T08:41:19Z</time>
      </trkpt>
      <trkpt lat="43.91678" lon="5.19409">
        <ele>375.53</ele>
        <time>2018-02-19T08:41:34Z</time>
      </trkpt>
      <trkpt lat="43.9169" lon="5.19399">
        <ele>376.97</ele>
        <time>2018-02-19T08:41:49Z</time>
      </trkpt>
      <trkpt lat="43.91702" lon="5.19391">
        <ele>377.94</ele>
        <time>2018-02-19T08:42:05Z</time>
      </trkpt>
      <trkpt lat="43.91716" lon="5.19388">
        <ele>379.38</ele>
        <time>2018-02-19T08:42:20Z</time>
      </trkpt>
      <trkpt lat="43.91735" lon="5.19386">
        <ele>380.82</ele>
        <time>2018-02-19T08:42:37Z</time>
      </trkpt>
      <trkpt lat="43.91748" lon="5.1938">
        <ele>381.78</ele>
        <time>2018-02-19T08:42:53Z</time>
      </trkpt>
      <trkpt lat="43.91754" lon="5.19374">
        <ele>382.74</ele>
        <time>2018-02-19T08:43:08Z</time>
      </trkpt>
      <trkpt lat="43.91753" lon="5.19363">
        <ele>383.22</ele>
        <time>2018-02-19T08:43:24Z</time>
      </trkpt>
      <trkpt lat="43.91749" lon="5.19346">
        <ele>385.15</ele>
        <time>2018-02-19T08:43:40Z</time>
      </trkpt>
      <trkpt lat="43.91747" lon="5.19335">
        <ele>386.59</ele>
        <time>2018-02-19T08:43:53Z</time>
      </trkpt>
      <trkpt lat="43.91747" lon="5.19319">
        <ele>387.07</ele>
        <time>2018-02-19T08:44:07Z</time>
      </trkpt>
      <trkpt lat="43.91747" lon="5.19317">
        <ele>387.07</ele>
        <time>2018-02-19T08:44:08Z</time>
      </trkpt>
      <trkpt lat="43.91748" lon="5.19295">
        <ele>388.99</ele>
        <time>2018-02-19T08:44:24Z</time>
      </trkpt>
      <trkpt lat="43.91753" lon="5.19278">
        <ele>389.95</ele>
        <time>2018-02-19T08:44:39Z</time>
      </trkpt>
      <trkpt lat="43.91767" lon="5.19266">
        <ele>392.36</ele>
        <time>2018-02-19T08:44:57Z</time>
      </trkpt>
      <trkpt lat="43.91778" lon="5.19256">
        <ele>393.8</ele>
        <time>2018-02-19T08:45:13Z</time>
      </trkpt>
      <trkpt lat="43.9179" lon="5.19245">
        <ele>395.24</ele>
        <time>2018-02-19T08:45:31Z</time>
      </trkpt>
      <trkpt lat="43.91792" lon="5.19245">
        <ele>395.72</ele>
        <time>2018-02-19T08:45:46Z</time>
      </trkpt>
      <trkpt lat="43.91798" lon="5.19241">
        <ele>396.2</ele>
        <time>2018-02-19T08:46:08Z</time>
      </trkpt>
      <trkpt lat="43.91807" lon="5.19229">
        <ele>397.64</ele>
        <time>2018-02-19T08:46:25Z</time>
      </trkpt>
      <trkpt lat="43.91818" lon="5.19217">
        <ele>399.08</ele>
        <time>2018-02-19T08:46:42Z</time>
      </trkpt>
      <trkpt lat="43.91824" lon="5.1921">
        <ele>399.57</ele>
        <time>2018-02-19T08:46:55Z</time>
      </trkpt>
      <trkpt lat="43.91831" lon="5.19201">
        <ele>400.53</ele>
        <time>2018-02-19T08:47:17Z</time>
      </trkpt>
      <trkpt lat="43.91839" lon="5.19185">
        <ele>401.97</ele>
        <time>2018-02-19T08:47:34Z</time>
      </trkpt>
      <trkpt lat="43.91852" lon="5.19169">
        <ele>402.93</ele>
        <time>2018-02-19T08:47:52Z</time>
      </trkpt>
      <trkpt lat="43.91863" lon="5.1916">
        <ele>403.89</ele>
        <time>2018-02-19T08:48:09Z</time>
      </trkpt>
      <trkpt lat="43.91873" lon="5.19148">
        <ele>405.81</ele>
        <time>2018-02-19T08:48:25Z</time>
      </trkpt>
      <trkpt lat="43.91885" lon="5.19137">
        <ele>407.26</ele>
        <time>2018-02-19T08:48:42Z</time>
      </trkpt>
      <trkpt lat="43.91895" lon="5.19124">
        <ele>408.7</ele>
        <time>2018-02-19T08:48:59Z</time>
      </trkpt>
      <trkpt lat="43.91903" lon="5.19115">
        <ele>409.18</ele>
        <time>2018-02-19T08:49:14Z</time>
      </trkpt>
      <trkpt lat="43.91903" lon="5.19116">
        <ele>407.26</ele>
        <time>2018-02-19T08:49:31Z</time>
      </trkpt>
      <trkpt lat="43.91903" lon="5.19114">
        <ele>407.26</ele>
        <time>2018-02-19T08:50:00Z</time>
      </trkpt>
      <trkpt lat="43.91905" lon="5.19117">
        <ele>407.26</ele>
        <time>2018-02-19T08:50:30Z</time>
      </trkpt>
      <trkpt lat="43.91903" lon="5.19116">
        <ele>408.7</ele>
        <time>2018-02-19T08:50:49Z</time>
      </trkpt>
      <trkpt lat="43.91903" lon="5.19116">
        <ele>408.7</ele>
        <time>2018-02-19T08:50:50Z</time>
      </trkpt>
      <trkpt lat="43.91905" lon="5.19113">
        <ele>408.7</ele>
        <time>2018-02-19T08:51:06Z</time>
      </trkpt>
      <trkpt lat="43.91905" lon="5.19114">
        <ele>409.18</ele>
        <time>2018-02-19T08:51:26Z</time>
      </trkpt>
      <trkpt lat="43.91906" lon="5.19112">
        <ele>409.18</ele>
        <time>2018-02-19T08:51:49Z</time>
      </trkpt>
      <trkpt lat="43.91907" lon="5.1911">
        <ele>409.66</ele>
        <time>2018-02-19T08:52:20Z</time>
      </trkpt>
      <trkpt lat="43.91906" lon="5.1911">
        <ele>409.66</ele>
        <time>2018-02-19T08:52:46Z</time>
      </trkpt>
      <trkpt lat="43.91905" lon="5.19108">
        <ele>410.14</ele>
        <time>2018-02-19T08:53:09Z</time>
      </trkpt>
      <trkpt lat="43.91905" lon="5.19106">
        <ele>410.14</ele>
        <time>2018-02-19T08:53:42Z</time>
      </trkpt>
      <trkpt lat="43.91912" lon="5.19101">
        <ele>410.14</ele>
        <time>2018-02-19T08:54:00Z</time>
      </trkpt>
      <trkpt lat="43.91922" lon="5.19091">
        <ele>411.1</ele>
        <time>2018-02-19T08:54:15Z</time>
      </trkpt>
      <trkpt lat="43.91929" lon="5.19085">
        <ele>411.58</ele>
        <time>2018-02-19T08:54:24Z</time>
      </trkpt>
      <trkpt lat="43.9194" lon="5.19069">
        <ele>412.54</ele>
        <time>2018-02-19T08:54:42Z</time>
      </trkpt>
      <trkpt lat="43.91951" lon="5.19054">
        <ele>413.5</ele>
        <time>2018-02-19T08:54:59Z</time>
      </trkpt>
      <trkpt lat="43.91967" lon="5.19042">
        <ele>414.47</ele>
        <time>2018-02-19T08:55:17Z</time>
      </trkpt>
      <trkpt lat="43.91981" lon="5.19036">
        <ele>415.43</ele>
        <time>2018-02-19T08:55:34Z</time>
      </trkpt>
      <trkpt lat="43.91993" lon="5.19018">
        <ele>416.39</ele>
        <time>2018-02-19T08:55:51Z</time>
      </trkpt>
      <trkpt lat="43.92003" lon="5.19003">
        <ele>416.87</ele>
        <time>2018-02-19T08:56:08Z</time>
      </trkpt>
      <trkpt lat="43.92006" lon="5.18984">
        <ele>418.31</ele>
        <time>2018-02-19T08:56:24Z</time>
      </trkpt>
      <trkpt lat="43.92015" lon="5.18968">
        <ele>419.75</ele>
        <time>2018-02-19T08:56:40Z</time>
      </trkpt>
      <trkpt lat="43.92018" lon="5.1895">
        <ele>421.19</ele>
        <time>2018-02-19T08:56:56Z</time>
      </trkpt>
      <trkpt lat="43.92023" lon="5.18939">
        <ele>421.68</ele>
        <time>2018-02-19T08:57:05Z</time>
      </trkpt>
      <trkpt lat="43.92035" lon="5.18921">
        <ele>422.64</ele>
        <time>2018-02-19T08:57:22Z</time>
      </trkpt>
      <trkpt lat="43.92045" lon="5.18903">
        <ele>424.08</ele>
        <time>2018-02-19T08:57:38Z</time>
      </trkpt>
      <trkpt lat="43.92056" lon="5.1889">
        <ele>425.04</ele>
        <time>2018-02-19T08:57:54Z</time>
      </trkpt>
      <trkpt lat="43.9207" lon="5.18875">
        <ele>425.52</ele>
        <time>2018-02-19T08:58:11Z</time>
      </trkpt>
      <trkpt lat="43.92086" lon="5.18859">
        <ele>426.96</ele>
        <time>2018-02-19T08:58:29Z</time>
      </trkpt>
      <trkpt lat="43.92099" lon="5.18848">
        <ele>428.4</ele>
        <time>2018-02-19T08:58:45Z</time>
      </trkpt>
      <trkpt lat="43.92114" lon="5.18835">
        <ele>429.37</ele>
        <time>2018-02-19T08:59:03Z</time>
      </trkpt>
      <trkpt lat="43.92126" lon="5.18818">
        <ele>429.85</ele>
        <time>2018-02-19T08:59:19Z</time>
      </trkpt>
      <trkpt lat="43.9214" lon="5.18816">
        <ele>430.81</ele>
        <time>2018-02-19T08:59:37Z</time>
      </trkpt>
      <trkpt lat="43.92141" lon="5.18815">
        <ele>430.81</ele>
        <time>2018-02-19T09:00:08Z</time>
      </trkpt>
      <trkpt lat="43.92141" lon="5.18816">
        <ele>430.81</ele>
        <time>2018-02-19T09:00:41Z</time>
      </trkpt>
      <trkpt lat="43.92143" lon="5.18818">
        <ele>430.81</ele>
        <time>2018-02-19T09:01:09Z</time>
      </trkpt>
      <trkpt lat="43.92141" lon="5.18818">
        <ele>430.81</ele>
        <time>2018-02-19T09:01:37Z</time>
      </trkpt>
      <trkpt lat="43.92142" lon="5.18816">
        <ele>430.81</ele>
        <time>2018-02-19T09:02:01Z</time>
      </trkpt>
      <trkpt lat="43.92152" lon="5.18806">
        <ele>432.73</ele>
        <time>2018-02-19T09:02:17Z</time>
      </trkpt>
      <trkpt lat="43.92163" lon="5.18801">
        <ele>434.17</ele>
        <time>2018-02-19T09:02:32Z</time>
      </trkpt>
      <trkpt lat="43.92171" lon="5.18791">
        <ele>435.61</ele>
        <time>2018-02-19T09:02:47Z</time>
      </trkpt>
      <trkpt lat="43.92183" lon="5.18788">
        <ele>438.02</ele>
        <time>2018-02-19T09:03:03Z</time>
      </trkpt>
      <trkpt lat="43.92192" lon="5.18782">
        <ele>439.94</ele>
        <time>2018-02-19T09:03:18Z</time>
      </trkpt>
      <trkpt lat="43.92201" lon="5.18775">
        <ele>441.86</ele>
        <time>2018-02-19T09:03:34Z</time>
      </trkpt>
      <trkpt lat="43.92207" lon="5.18767">
        <ele>443.79</ele>
        <time>2018-02-19T09:03:48Z</time>
      </trkpt>
      <trkpt lat="43.92216" lon="5.18758">
        <ele>446.67</ele>
        <time>2018-02-19T09:04:05Z</time>
      </trkpt>
      <trkpt lat="43.92227" lon="5.18743">
        <ele>448.11</ele>
        <time>2018-02-19T09:04:24Z</time>
      </trkpt>
      <trkpt lat="43.92238" lon="5.18736">
        <ele>450.52</ele>
        <time>2018-02-19T09:04:41Z</time>
      </trkpt>
      <trkpt lat="43.92249" lon="5.1873">
        <ele>451.96</ele>
        <time>2018-02-19T09:04:57Z</time>
      </trkpt>
      <trkpt lat="43.9226" lon="5.18725">
        <ele>453.88</ele>
        <time>2018-02-19T09:05:10Z</time>
      </trkpt>
      <trkpt lat="43.92271" lon="5.18719">
        <ele>455.8</ele>
        <time>2018-02-19T09:05:26Z</time>
      </trkpt>
      <trkpt lat="43.92283" lon="5.18712">
        <ele>457.72</ele>
        <time>2018-02-19T09:05:43Z</time>
      </trkpt>
      <trkpt lat="43.92299" lon="5.18705">
        <ele>459.65</ele>
        <time>2018-02-19T09:05:59Z</time>
      </trkpt>
      <trkpt lat="43.92314" lon="5.18697">
        <ele>461.57</ele>
        <time>2018-02-19T09:06:17Z</time>
      </trkpt>
      <trkpt lat="43.92329" lon="5.18689">
        <ele>463.97</ele>
        <time>2018-02-19T09:06:36Z</time>
      </trkpt>
      <trkpt lat="43.92341" lon="5.18683">
        <ele>465.9</ele>
        <time>2018-02-19T09:06:52Z</time>
      </trkpt>
      <trkpt lat="43.92352" lon="5.18671">
        <ele>467.82</ele>
        <time>2018-02-19T09:07:09Z</time>
      </trkpt>
      <trkpt lat="43.92354" lon="5.18668">
        <ele>467.82</ele>
        <time>2018-02-19T09:07:12Z</time>
      </trkpt>
      <trkpt lat="43.92363" lon="5.18647">
        <ele>469.74</ele>
        <time>2018-02-19T09:07:31Z</time>
      </trkpt>
      <trkpt lat="43.92367" lon="5.18644">
        <ele>469.74</ele>
        <time>2018-02-19T09:07:51Z</time>
      </trkpt>
      <trkpt lat="43.92373" lon="5.18639">
        <ele>469.74</ele>
        <time>2018-02-19T09:08:06Z</time>
      </trkpt>
      <trkpt lat="43.92376" lon="5.18638">
        <ele>469.74</ele>
        <time>2018-02-19T09:08:35Z</time>
      </trkpt>
      <trkpt lat="43.92394" lon="5.18629">
        <ele>470.7</ele>
        <time>2018-02-19T09:08:55Z</time>
      </trkpt>
      <trkpt lat="43.92396" lon="5.18626">
        <ele>471.18</ele>
        <time>2018-02-19T09:09:14Z</time>
      </trkpt>
      <trkpt lat="43.92408" lon="5.18623">
        <ele>471.18</ele>
        <time>2018-02-19T09:09:29Z</time>
      </trkpt>
      <trkpt lat="43.92411" lon="5.18621">
        <ele>471.18</ele>
        <time>2018-02-19T09:09:32Z</time>
      </trkpt>
      <trkpt lat="43.92429" lon="5.18611">
        <ele>471.18</ele>
        <time>2018-02-19T09:09:53Z</time>
      </trkpt>
      <trkpt lat="43.92443" lon="5.18604">
        <ele>471.18</ele>
        <time>2018-02-19T09:10:13Z</time>
      </trkpt>
      <trkpt lat="43.92448" lon="5.18602">
        <ele>468.78</ele>
        <time>2018-02-19T09:10:27Z</time>
      </trkpt>
      <trkpt lat="43.92454" lon="5.18601">
        <ele>467.82</ele>
        <time>2018-02-19T09:10:42Z</time>
      </trkpt>
      <trkpt lat="43.92462" lon="5.18601">
        <ele>465.9</ele>
        <time>2018-02-19T09:10:57Z</time>
      </trkpt>
      <trkpt lat="43.9247" lon="5.18604">
        <ele>463.49</ele>
        <time>2018-02-19T09:11:12Z</time>
      </trkpt>
      <trkpt lat="43.92478" lon="5.18604">
        <ele>462.53</ele>
        <time>2018-02-19T09:11:25Z</time>
      </trkpt>
      <trkpt lat="43.92484" lon="5.18608">
        <ele>461.09</ele>
        <time>2018-02-19T09:11:40Z</time>
      </trkpt>
      <trkpt lat="43.92499" lon="5.18615">
        <ele>459.65</ele>
        <time>2018-02-19T09:11:56Z</time>
      </trkpt>
      <trkpt lat="43.92503" lon="5.1862">
        <ele>458.21</ele>
        <time>2018-02-19T09:12:09Z</time>
      </trkpt>
      <trkpt lat="43.92504" lon="5.18621">
        <ele>459.65</ele>
        <time>2018-02-19T09:12:11Z</time>
      </trkpt>
      <trkpt lat="43.92505" lon="5.18622">
        <ele>457.72</ele>
        <time>2018-02-19T09:12:13Z</time>
      </trkpt>
      <trkpt lat="43.92516" lon="5.18624">
        <ele>455.32</ele>
        <time>2018-02-19T09:12:31Z</time>
      </trkpt>
      <trkpt lat="43.92526" lon="5.18629">
        <ele>453.4</ele>
        <time>2018-02-19T09:12:45Z</time>
      </trkpt>
      <trkpt lat="43.92534" lon="5.18635">
        <ele>452.44</ele>
        <time>2018-02-19T09:12:59Z</time>
      </trkpt>
      <trkpt lat="43.92542" lon="5.18643">
        <ele>450.52</ele>
        <time>2018-02-19T09:13:15Z</time>
      </trkpt>
      <trkpt lat="43.92553" lon="5.18648">
        <ele>448.11</ele>
        <time>2018-02-19T09:13:33Z</time>
      </trkpt>
      <trkpt lat="43.92562" lon="5.18655">
        <ele>446.67</ele>
        <time>2018-02-19T09:13:47Z</time>
      </trkpt>
      <trkpt lat="43.9257" lon="5.18664">
        <ele>445.23</ele>
        <time>2018-02-19T09:14:03Z</time>
      </trkpt>
      <trkpt lat="43.92575" lon="5.18668">
        <ele>444.27</ele>
        <time>2018-02-19T09:14:18Z</time>
      </trkpt>
      <trkpt lat="43.92577" lon="5.1867">
        <ele>442.82</ele>
        <time>2018-02-19T09:14:40Z</time>
      </trkpt>
      <trkpt lat="43.92579" lon="5.18668">
        <ele>442.34</ele>
        <time>2018-02-19T09:15:00Z</time>
      </trkpt>
      <trkpt lat="43.92579" lon="5.18668">
        <ele>442.34</ele>
        <time>2018-02-19T09:15:30Z</time>
      </trkpt>
      <trkpt lat="43.92577" lon="5.18667">
        <ele>443.79</ele>
        <time>2018-02-19T09:15:37Z</time>
      </trkpt>
      <trkpt lat="43.92577" lon="5.18669">
        <ele>443.79</ele>
        <time>2018-02-19T09:15:56Z</time>
      </trkpt>
      <trkpt lat="43.92582" lon="5.18671">
        <ele>443.79</ele>
        <time>2018-02-19T09:16:15Z</time>
      </trkpt>
      <trkpt lat="43.92583" lon="5.18669">
        <ele>443.79</ele>
        <time>2018-02-19T09:16:44Z</time>
      </trkpt>
      <trkpt lat="43.92582" lon="5.18667">
        <ele>443.79</ele>
        <time>2018-02-19T09:17:10Z</time>
      </trkpt>
      <trkpt lat="43.92582" lon="5.18666">
        <ele>443.79</ele>
        <time>2018-02-19T09:17:41Z</time>
      </trkpt>
      <trkpt lat="43.92586" lon="5.18671">
        <ele>442.34</ele>
        <time>2018-02-19T09:17:59Z</time>
      </trkpt>
      <trkpt lat="43.92591" lon="5.18678">
        <ele>440.9</ele>
        <time>2018-02-19T09:18:13Z</time>
      </trkpt>
      <trkpt lat="43.92597" lon="5.18684">
        <ele>438.5</ele>
        <time>2018-02-19T09:18:28Z</time>
      </trkpt>
      <trkpt lat="43.92606" lon="5.18689">
        <ele>437.06</ele>
        <time>2018-02-19T09:18:43Z</time>
      </trkpt>
      <trkpt lat="43.92616" lon="5.18693">
        <ele>434.65</ele>
        <time>2018-02-19T09:19:00Z</time>
      </trkpt>
      <trkpt lat="43.92623" lon="5.18698">
        <ele>432.73</ele>
        <time>2018-02-19T09:19:14Z</time>
      </trkpt>
      <trkpt lat="43.92633" lon="5.18702">
        <ele>430.81</ele>
        <time>2018-02-19T09:19:30Z</time>
      </trkpt>
      <trkpt lat="43.92644" lon="5.18706">
        <ele>429.37</ele>
        <time>2018-02-19T09:19:46Z</time>
      </trkpt>
      <trkpt lat="43.92655" lon="5.18716">
        <ele>427.44</ele>
        <time>2018-02-19T09:20:02Z</time>
      </trkpt>
      <trkpt lat="43.92667" lon="5.18727">
        <ele>426</ele>
        <time>2018-02-19T09:20:19Z</time>
      </trkpt>
      <trkpt lat="43.92676" lon="5.18736">
        <ele>425.04</ele>
        <time>2018-02-19T09:20:34Z</time>
      </trkpt>
      <trkpt lat="43.92686" lon="5.18746">
        <ele>424.08</ele>
        <time>2018-02-19T09:20:51Z</time>
      </trkpt>
      <trkpt lat="43.92703" lon="5.18759">
        <ele>422.64</ele>
        <time>2018-02-19T09:21:12Z</time>
      </trkpt>
      <trkpt lat="43.92708" lon="5.18763">
        <ele>421.68</ele>
        <time>2018-02-19T09:21:18Z</time>
      </trkpt>
      <trkpt lat="43.92719" lon="5.18771">
        <ele>420.71</ele>
        <time>2018-02-19T09:21:30Z</time>
      </trkpt>
      <trkpt lat="43.92734" lon="5.18781">
        <ele>418.79</ele>
        <time>2018-02-19T09:21:47Z</time>
      </trkpt>
      <trkpt lat="43.92738" lon="5.18783">
        <ele>418.31</ele>
        <time>2018-02-19T09:22:03Z</time>
      </trkpt>
      <trkpt lat="43.92742" lon="5.18785">
        <ele>417.83</ele>
        <time>2018-02-19T09:22:23Z</time>
      </trkpt>
      <trkpt lat="43.92752" lon="5.18793">
        <ele>416.87</ele>
        <time>2018-02-19T09:22:39Z</time>
      </trkpt>
      <trkpt lat="43.92766" lon="5.18804">
        <ele>415.91</ele>
        <time>2018-02-19T09:22:55Z</time>
      </trkpt>
      <trkpt lat="43.92779" lon="5.18814">
        <ele>414.47</ele>
        <time>2018-02-19T09:23:12Z</time>
      </trkpt>
      <trkpt lat="43.92795" lon="5.1883">
        <ele>413.5</ele>
        <time>2018-02-19T09:23:31Z</time>
      </trkpt>
      <trkpt lat="43.92808" lon="5.18846">
        <ele>413.02</ele>
        <time>2018-02-19T09:23:50Z</time>
      </trkpt>
      <trkpt lat="43.92811" lon="5.18846">
        <ele>413.02</ele>
        <time>2018-02-19T09:24:15Z</time>
      </trkpt>
      <trkpt lat="43.92816" lon="5.18852">
        <ele>413.02</ele>
        <time>2018-02-19T09:24:36Z</time>
      </trkpt>
      <trkpt lat="43.92829" lon="5.18863">
        <ele>412.06</ele>
        <time>2018-02-19T09:24:56Z</time>
      </trkpt>
      <trkpt lat="43.92845" lon="5.18872">
        <ele>411.1</ele>
        <time>2018-02-19T09:25:13Z</time>
      </trkpt>
      <trkpt lat="43.92858" lon="5.18881">
        <ele>409.18</ele>
        <time>2018-02-19T09:25:29Z</time>
      </trkpt>
      <trkpt lat="43.9287" lon="5.18877">
        <ele>406.29</ele>
        <time>2018-02-19T09:25:48Z</time>
      </trkpt>
      <trkpt lat="43.92879" lon="5.18881">
        <ele>404.37</ele>
        <time>2018-02-19T09:26:03Z</time>
      </trkpt>
      <trkpt lat="43.92888" lon="5.18881">
        <ele>402.45</ele>
        <time>2018-02-19T09:26:17Z</time>
      </trkpt>
      <trkpt lat="43.92899" lon="5.18876">
        <ele>399.08</ele>
        <time>2018-02-19T09:26:36Z</time>
      </trkpt>
      <trkpt lat="43.929" lon="5.18868">
        <ele>397.64</ele>
        <time>2018-02-19T09:26:50Z</time>
      </trkpt>
      <trkpt lat="43.92894" lon="5.1886">
        <ele>395.72</ele>
        <time>2018-02-19T09:27:06Z</time>
      </trkpt>
      <trkpt lat="43.92885" lon="5.18851">
        <ele>392.36</ele>
        <time>2018-02-19T09:27:24Z</time>
      </trkpt>
      <trkpt lat="43.92878" lon="5.18843">
        <ele>390.91</ele>
        <time>2018-02-19T09:27:38Z</time>
      </trkpt>
      <trkpt lat="43.92871" lon="5.18835">
        <ele>388.99</ele>
        <time>2018-02-19T09:27:53Z</time>
      </trkpt>
      <trkpt lat="43.92862" lon="5.1883">
        <ele>387.07</ele>
        <time>2018-02-19T09:28:10Z</time>
      </trkpt>
      <trkpt lat="43.92854" lon="5.18822">
        <ele>385.15</ele>
        <time>2018-02-19T09:28:25Z</time>
      </trkpt>
      <trkpt lat="43.92846" lon="5.18809">
        <ele>383.22</ele>
        <time>2018-02-19T09:28:42Z</time>
      </trkpt>
      <trkpt lat="43.92839" lon="5.18802">
        <ele>381.3</ele>
        <time>2018-02-19T09:28:59Z</time>
      </trkpt>
      <trkpt lat="43.92837" lon="5.188">
        <ele>381.3</ele>
        <time>2018-02-19T09:29:18Z</time>
      </trkpt>
      <trkpt lat="43.92823" lon="5.18787">
        <ele>379.38</ele>
        <time>2018-02-19T09:29:36Z</time>
      </trkpt>
      <trkpt lat="43.92814" lon="5.18777">
        <ele>377.94</ele>
        <time>2018-02-19T09:29:50Z</time>
      </trkpt>
      <trkpt lat="43.92799" lon="5.1876">
        <ele>376.01</ele>
        <time>2018-02-19T09:30:08Z</time>
      </trkpt>
      <trkpt lat="43.92785" lon="5.18743">
        <ele>374.57</ele>
        <time>2018-02-19T09:30:25Z</time>
      </trkpt>
      <trkpt lat="43.92772" lon="5.18733">
        <ele>372.65</ele>
        <time>2018-02-19T09:30:42Z</time>
      </trkpt>
      <trkpt lat="43.92773" lon="5.18723">
        <ele>372.17</ele>
        <time>2018-02-19T09:30:56Z</time>
      </trkpt>
      <trkpt lat="43.92776" lon="5.18721">
        <ele>371.21</ele>
        <time>2018-02-19T09:31:16Z</time>
      </trkpt>
      <trkpt lat="43.9279" lon="5.1873">
        <ele>370.24</ele>
        <time>2018-02-19T09:31:34Z</time>
      </trkpt>
      <trkpt lat="43.92806" lon="5.18742">
        <ele>369.76</ele>
        <time>2018-02-19T09:31:53Z</time>
      </trkpt>
      <trkpt lat="43.92815" lon="5.18748">
        <ele>369.28</ele>
        <time>2018-02-19T09:32:11Z</time>
      </trkpt>
      <trkpt lat="43.92823" lon="5.18752">
        <ele>369.28</ele>
        <time>2018-02-19T09:32:24Z</time>
      </trkpt>
      <trkpt lat="43.92823" lon="5.18753">
        <ele>369.28</ele>
        <time>2018-02-19T09:32:25Z</time>
      </trkpt>
      <trkpt lat="43.92838" lon="5.18754">
        <ele>368.8</ele>
        <time>2018-02-19T09:32:43Z</time>
      </trkpt>
      <trkpt lat="43.92843" lon="5.18748">
        <ele>368.8</ele>
        <time>2018-02-19T09:33:00Z</time>
      </trkpt>
      <trkpt lat="43.92842" lon="5.18751">
        <ele>368.8</ele>
        <time>2018-02-19T09:33:16Z</time>
      </trkpt>
      <trkpt lat="43.92843" lon="5.1875">
        <ele>368.8</ele>
        <time>2018-02-19T09:33:39Z</time>
      </trkpt>
      <trkpt lat="43.92852" lon="5.1876">
        <ele>368.8</ele>
        <time>2018-02-19T09:33:52Z</time>
      </trkpt>
      <trkpt lat="43.92869" lon="5.18773">
        <ele>370.73</ele>
        <time>2018-02-19T09:34:12Z</time>
      </trkpt>
      <trkpt lat="43.92884" lon="5.18784">
        <ele>372.17</ele>
        <time>2018-02-19T09:34:30Z</time>
      </trkpt>
      <trkpt lat="43.92901" lon="5.18795">
        <ele>372.17</ele>
        <time>2018-02-19T09:34:48Z</time>
      </trkpt>
      <trkpt lat="43.92915" lon="5.18803">
        <ele>370.73</ele>
        <time>2018-02-19T09:35:04Z</time>
      </trkpt>
      <trkpt lat="43.92916" lon="5.18803">
        <ele>370.73</ele>
        <time>2018-02-19T09:35:05Z</time>
      </trkpt>
      <trkpt lat="43.92933" lon="5.18806">
        <ele>369.76</ele>
        <time>2018-02-19T09:35:24Z</time>
      </trkpt>
      <trkpt lat="43.92943" lon="5.18809">
        <ele>370.73</ele>
        <time>2018-02-19T09:35:40Z</time>
      </trkpt>
      <trkpt lat="43.92954" lon="5.18815">
        <ele>371.21</ele>
        <time>2018-02-19T09:35:57Z</time>
      </trkpt>
      <trkpt lat="43.92959" lon="5.18815">
        <ele>371.21</ele>
        <time>2018-02-19T09:36:20Z</time>
      </trkpt>
      <trkpt lat="43.92961" lon="5.18813">
        <ele>371.21</ele>
        <time>2018-02-19T09:36:39Z</time>
      </trkpt>
      <trkpt lat="43.9296" lon="5.18815">
        <ele>371.21</ele>
        <time>2018-02-19T09:37:04Z</time>
      </trkpt>
      <trkpt lat="43.92961" lon="5.18814">
        <ele>367.36</ele>
        <time>2018-02-19T09:37:21Z</time>
      </trkpt>
      <trkpt lat="43.9296" lon="5.18812">
        <ele>369.76</ele>
        <time>2018-02-19T09:37:43Z</time>
      </trkpt>
      <trkpt lat="43.92955" lon="5.18808">
        <ele>369.28</ele>
        <time>2018-02-19T09:38:21Z</time>
      </trkpt>
      <trkpt lat="43.92957" lon="5.18815">
        <ele>369.28</ele>
        <time>2018-02-19T09:39:00Z</time>
      </trkpt>
      <trkpt lat="43.92957" lon="5.18812">
        <ele>369.28</ele>
        <time>2018-02-19T09:39:36Z</time>
      </trkpt>
      <trkpt lat="43.92959" lon="5.18809">
        <ele>369.28</ele>
        <time>2018-02-19T09:40:14Z</time>
      </trkpt>
      <trkpt lat="43.92956" lon="5.18814">
        <ele>369.28</ele>
        <time>2018-02-19T09:40:59Z</time>
      </trkpt>
      <trkpt lat="43.92957" lon="5.18814">
        <ele>369.28</ele>
        <time>2018-02-19T09:41:40Z</time>
      </trkpt>
      <trkpt lat="43.92958" lon="5.18812">
        <ele>369.28</ele>
        <time>2018-02-19T09:42:19Z</time>
      </trkpt>
      <trkpt lat="43.92958" lon="5.18807">
        <ele>369.28</ele>
        <time>2018-02-19T09:43:01Z</time>
      </trkpt>
      <trkpt lat="43.92955" lon="5.18809">
        <ele>369.76</ele>
        <time>2018-02-19T09:43:38Z</time>
      </trkpt>
      <trkpt lat="43.92956" lon="5.18813">
        <ele>369.76</ele>
        <time>2018-02-19T09:44:14Z</time>
      </trkpt>
      <trkpt lat="43.92957" lon="5.18809">
        <ele>369.76</ele>
        <time>2018-02-19T09:44:57Z</time>
      </trkpt>
      <trkpt lat="43.92957" lon="5.18815">
        <ele>369.76</ele>
        <time>2018-02-19T09:45:42Z</time>
      </trkpt>
      <trkpt lat="43.92959" lon="5.18814">
        <ele>371.21</ele>
        <time>2018-02-19T09:46:23Z</time>
      </trkpt>
      <trkpt lat="43.92959" lon="5.18815">
        <ele>371.21</ele>
        <time>2018-02-19T09:46:46Z</time>
      </trkpt>
      <trkpt lat="43.92959" lon="5.18816">
        <ele>371.69</ele>
        <time>2018-02-19T09:47:09Z</time>
      </trkpt>
      <trkpt lat="43.92959" lon="5.18816">
        <ele>372.65</ele>
        <time>2018-02-19T09:47:26Z</time>
      </trkpt>
      <trkpt lat="43.92959" lon="5.1882">
        <ele>369.28</ele>
        <time>2018-02-19T09:47:45Z</time>
      </trkpt>
      <trkpt lat="43.92958" lon="5.1882">
        <ele>375.53</ele>
        <time>2018-02-19T09:47:46Z</time>
      </trkpt>
      <trkpt lat="43.92958" lon="5.1882">
        <ele>372.17</ele>
        <time>2018-02-19T09:47:47Z</time>
      </trkpt>
      <trkpt lat="43.92959" lon="5.18821">
        <ele>372.17</ele>
        <time>2018-02-19T09:48:13Z</time>
      </trkpt>
      <trkpt lat="43.9296" lon="5.18824">
        <ele>372.17</ele>
        <time>2018-02-19T09:48:34Z</time>
      </trkpt>
      <trkpt lat="43.9296" lon="5.18817">
        <ele>372.17</ele>
        <time>2018-02-19T09:48:46Z</time>
      </trkpt>
      <trkpt lat="43.92964" lon="5.1882">
        <ele>372.17</ele>
        <time>2018-02-19T09:49:01Z</time>
      </trkpt>
      <trkpt lat="43.92972" lon="5.18826">
        <ele>372.17</ele>
        <time>2018-02-19T09:49:14Z</time>
      </trkpt>
      <trkpt lat="43.92989" lon="5.18837">
        <ele>373.13</ele>
        <time>2018-02-19T09:49:32Z</time>
      </trkpt>
      <trkpt lat="43.93008" lon="5.18854">
        <ele>374.09</ele>
        <time>2018-02-19T09:49:51Z</time>
      </trkpt>
      <trkpt lat="43.93023" lon="5.18868">
        <ele>374.57</ele>
        <time>2018-02-19T09:50:08Z</time>
      </trkpt>
      <trkpt lat="43.93043" lon="5.18883">
        <ele>375.05</ele>
        <time>2018-02-19T09:50:27Z</time>
      </trkpt>
      <trkpt lat="43.9306" lon="5.18889">
        <ele>375.53</ele>
        <time>2018-02-19T09:50:43Z</time>
      </trkpt>
      <trkpt lat="43.93068" lon="5.18892">
        <ele>376.01</ele>
        <time>2018-02-19T09:50:52Z</time>
      </trkpt>
      <trkpt lat="43.93088" lon="5.18888">
        <ele>376.49</ele>
        <time>2018-02-19T09:51:09Z</time>
      </trkpt>
      <trkpt lat="43.93107" lon="5.1889">
        <ele>376.97</ele>
        <time>2018-02-19T09:51:27Z</time>
      </trkpt>
      <trkpt lat="43.93117" lon="5.18891">
        <ele>377.45</ele>
        <time>2018-02-19T09:51:37Z</time>
      </trkpt>
      <trkpt lat="43.93138" lon="5.18895">
        <ele>377.94</ele>
        <time>2018-02-19T09:51:56Z</time>
      </trkpt>
      <trkpt lat="43.93162" lon="5.18901">
        <ele>378.42</ele>
        <time>2018-02-19T09:52:16Z</time>
      </trkpt>
      <trkpt lat="43.93183" lon="5.18905">
        <ele>378.9</ele>
        <time>2018-02-19T09:52:34Z</time>
      </trkpt>
      <trkpt lat="43.93202" lon="5.18913">
        <ele>379.38</ele>
        <time>2018-02-19T09:52:53Z</time>
      </trkpt>
      <trkpt lat="43.93216" lon="5.18919">
        <ele>379.38</ele>
        <time>2018-02-19T09:53:07Z</time>
      </trkpt>
      <trkpt lat="43.9322" lon="5.18921">
        <ele>379.38</ele>
        <time>2018-02-19T09:53:11Z</time>
      </trkpt>
      <trkpt lat="43.93236" lon="5.18924">
        <ele>378.42</ele>
        <time>2018-02-19T09:53:27Z</time>
      </trkpt>
      <trkpt lat="43.93254" lon="5.18921">
        <ele>376.97</ele>
        <time>2018-02-19T09:53:44Z</time>
      </trkpt>
      <trkpt lat="43.93275" lon="5.18914">
        <ele>378.42</ele>
        <time>2018-02-19T09:54:04Z</time>
      </trkpt>
      <trkpt lat="43.93301" lon="5.18905">
        <ele>380.34</ele>
        <time>2018-02-19T09:54:25Z</time>
      </trkpt>
      <trkpt lat="43.93324" lon="5.18896">
        <ele>381.78</ele>
        <time>2018-02-19T09:54:44Z</time>
      </trkpt>
      <trkpt lat="43.93343" lon="5.18884">
        <ele>383.22</ele>
        <time>2018-02-19T09:55:02Z</time>
      </trkpt>
      <trkpt lat="43.93364" lon="5.18875">
        <ele>385.15</ele>
        <time>2018-02-19T09:55:22Z</time>
      </trkpt>
      <trkpt lat="43.93382" lon="5.18874">
        <ele>386.59</ele>
        <time>2018-02-19T09:55:39Z</time>
      </trkpt>
      <trkpt lat="43.93398" lon="5.18872">
        <ele>388.03</ele>
        <time>2018-02-19T09:55:54Z</time>
      </trkpt>
      <trkpt lat="43.93401" lon="5.1886">
        <ele>389.47</ele>
        <time>2018-02-19T09:56:09Z</time>
      </trkpt>
      <trkpt lat="43.93398" lon="5.18861">
        <ele>389.47</ele>
        <time>2018-02-19T09:56:26Z</time>
      </trkpt>
      <trkpt lat="43.93397" lon="5.18861">
        <ele>388.99</ele>
        <time>2018-02-19T09:56:53Z</time>
      </trkpt>
      <trkpt lat="43.93391" lon="5.18852">
        <ele>389.47</ele>
        <time>2018-02-19T09:57:09Z</time>
      </trkpt>
      <trkpt lat="43.93388" lon="5.1885">
        <ele>389.47</ele>
        <time>2018-02-19T09:57:12Z</time>
      </trkpt>
      <trkpt lat="43.93371" lon="5.18835">
        <ele>389.47</ele>
        <time>2018-02-19T09:57:31Z</time>
      </trkpt>
      <trkpt lat="43.93357" lon="5.18817">
        <ele>389.47</ele>
        <time>2018-02-19T09:57:49Z</time>
      </trkpt>
      <trkpt lat="43.93345" lon="5.18805">
        <ele>390.43</ele>
        <time>2018-02-19T09:58:05Z</time>
      </trkpt>
      <trkpt lat="43.93337" lon="5.18792">
        <ele>390.91</ele>
        <time>2018-02-19T09:58:20Z</time>
      </trkpt>
      <trkpt lat="43.93334" lon="5.18782">
        <ele>393.32</ele>
        <time>2018-02-19T09:58:33Z</time>
      </trkpt>
      <trkpt lat="43.93331" lon="5.18769">
        <ele>395.72</ele>
        <time>2018-02-19T09:58:47Z</time>
      </trkpt>
      <trkpt lat="43.93331" lon="5.18768">
        <ele>395.72</ele>
        <time>2018-02-19T09:58:48Z</time>
      </trkpt>
      <trkpt lat="43.9334" lon="5.18761">
        <ele>398.12</ele>
        <time>2018-02-19T09:59:02Z</time>
      </trkpt>
      <trkpt lat="43.93347" lon="5.18759">
        <ele>400.53</ele>
        <time>2018-02-19T09:59:15Z</time>
      </trkpt>
      <trkpt lat="43.93358" lon="5.18755">
        <ele>401.49</ele>
        <time>2018-02-19T09:59:29Z</time>
      </trkpt>
      <trkpt lat="43.93358" lon="5.18755">
        <ele>401.97</ele>
        <time>2018-02-19T09:59:48Z</time>
      </trkpt>
      <trkpt lat="43.93355" lon="5.18756">
        <ele>401.97</ele>
        <time>2018-02-19T09:59:52Z</time>
      </trkpt>
      <trkpt lat="43.93361" lon="5.18758">
        <ele>401.97</ele>
        <time>2018-02-19T10:00:00Z</time>
      </trkpt>
      <trkpt lat="43.93357" lon="5.18756">
        <ele>401.49</ele>
        <time>2018-02-19T10:00:24Z</time>
      </trkpt>
      <trkpt lat="43.93361" lon="5.18753">
        <ele>401.49</ele>
        <time>2018-02-19T10:00:55Z</time>
      </trkpt>
      <trkpt lat="43.93361" lon="5.18753">
        <ele>401.49</ele>
        <time>2018-02-19T10:01:21Z</time>
      </trkpt>
      <trkpt lat="43.93362" lon="5.18754">
        <ele>401.97</ele>
        <time>2018-02-19T10:01:50Z</time>
      </trkpt>
      <trkpt lat="43.93364" lon="5.18754">
        <ele>401.97</ele>
        <time>2018-02-19T10:02:19Z</time>
      </trkpt>
      <trkpt lat="43.9337" lon="5.18753">
        <ele>402.93</ele>
        <time>2018-02-19T10:02:33Z</time>
      </trkpt>
      <trkpt lat="43.93378" lon="5.18754">
        <ele>406.29</ele>
        <time>2018-02-19T10:02:48Z</time>
      </trkpt>
      <trkpt lat="43.93388" lon="5.18749">
        <ele>408.7</ele>
        <time>2018-02-19T10:03:02Z</time>
      </trkpt>
      <trkpt lat="43.93398" lon="5.1875">
        <ele>410.62</ele>
        <time>2018-02-19T10:03:17Z</time>
      </trkpt>
      <trkpt lat="43.93407" lon="5.18747">
        <ele>412.06</ele>
        <time>2018-02-19T10:03:32Z</time>
      </trkpt>
      <trkpt lat="43.93416" lon="5.18743">
        <ele>413.98</ele>
        <time>2018-02-19T10:03:44Z</time>
      </trkpt>
      <trkpt lat="43.93422" lon="5.1874">
        <ele>415.91</ele>
        <time>2018-02-19T10:03:57Z</time>
      </trkpt>
      <trkpt lat="43.93429" lon="5.18741">
        <ele>417.83</ele>
        <time>2018-02-19T10:04:10Z</time>
      </trkpt>
      <trkpt lat="43.93437" lon="5.18744">
        <ele>419.75</ele>
        <time>2018-02-19T10:04:24Z</time>
      </trkpt>
      <trkpt lat="43.93448" lon="5.18748">
        <ele>421.19</ele>
        <time>2018-02-19T10:04:37Z</time>
      </trkpt>
      <trkpt lat="43.93461" lon="5.18752">
        <ele>423.12</ele>
        <time>2018-02-19T10:04:52Z</time>
      </trkpt>
      <trkpt lat="43.93467" lon="5.18752">
        <ele>425.04</ele>
        <time>2018-02-19T10:05:07Z</time>
      </trkpt>
      <trkpt lat="43.93477" lon="5.18755">
        <ele>426.48</ele>
        <time>2018-02-19T10:05:20Z</time>
      </trkpt>
      <trkpt lat="43.93484" lon="5.18752">
        <ele>427.92</ele>
        <time>2018-02-19T10:05:32Z</time>
      </trkpt>
      <trkpt lat="43.93495" lon="5.18752">
        <ele>429.37</ele>
        <time>2018-02-19T10:05:45Z</time>
      </trkpt>
      <trkpt lat="43.93503" lon="5.1875">
        <ele>431.77</ele>
        <time>2018-02-19T10:05:58Z</time>
      </trkpt>
      <trkpt lat="43.93511" lon="5.1875">
        <ele>432.25</ele>
        <time>2018-02-19T10:06:09Z</time>
      </trkpt>
      <trkpt lat="43.93519" lon="5.18746">
        <ele>434.65</ele>
        <time>2018-02-19T10:06:23Z</time>
      </trkpt>
      <trkpt lat="43.93532" lon="5.18745">
        <ele>435.61</ele>
        <time>2018-02-19T10:06:37Z</time>
      </trkpt>
      <trkpt lat="43.93531" lon="5.18741">
        <ele>436.1</ele>
        <time>2018-02-19T10:07:04Z</time>
      </trkpt>
      <trkpt lat="43.93533" lon="5.18745">
        <ele>435.13</ele>
        <time>2018-02-19T10:07:27Z</time>
      </trkpt>
      <trkpt lat="43.93533" lon="5.18744">
        <ele>436.1</ele>
        <time>2018-02-19T10:07:30Z</time>
      </trkpt>
      <trkpt lat="43.93531" lon="5.18745">
        <ele>434.65</ele>
        <time>2018-02-19T10:07:48Z</time>
      </trkpt>
      <trkpt lat="43.93531" lon="5.18745">
        <ele>435.61</ele>
        <time>2018-02-19T10:08:04Z</time>
      </trkpt>
      <trkpt lat="43.93531" lon="5.18745">
        <ele>434.65</ele>
        <time>2018-02-19T10:08:16Z</time>
      </trkpt>
      <trkpt lat="43.93529" lon="5.18747">
        <ele>435.61</ele>
        <time>2018-02-19T10:08:35Z</time>
      </trkpt>
      <trkpt lat="43.93525" lon="5.18745">
        <ele>436.1</ele>
        <time>2018-02-19T10:09:04Z</time>
      </trkpt>
      <trkpt lat="43.93528" lon="5.18743">
        <ele>436.58</ele>
        <time>2018-02-19T10:09:29Z</time>
      </trkpt>
      <trkpt lat="43.93529" lon="5.18745">
        <ele>437.54</ele>
        <time>2018-02-19T10:09:59Z</time>
      </trkpt>
      <trkpt lat="43.93529" lon="5.18746">
        <ele>436.1</ele>
        <time>2018-02-19T10:10:10Z</time>
      </trkpt>
      <trkpt lat="43.93528" lon="5.18746">
        <ele>439.46</ele>
        <time>2018-02-19T10:10:16Z</time>
      </trkpt>
      <trkpt lat="43.93535" lon="5.1874">
        <ele>436.58</ele>
        <time>2018-02-19T10:10:35Z</time>
      </trkpt>
      <trkpt lat="43.93538" lon="5.18734">
        <ele>438.02</ele>
        <time>2018-02-19T10:10:49Z</time>
      </trkpt>
      <trkpt lat="43.93545" lon="5.18728">
        <ele>439.46</ele>
        <time>2018-02-19T10:11:05Z</time>
      </trkpt>
      <trkpt lat="43.93555" lon="5.18728">
        <ele>440.9</ele>
        <time>2018-02-19T10:11:20Z</time>
      </trkpt>
      <trkpt lat="43.93567" lon="5.18725">
        <ele>441.86</ele>
        <time>2018-02-19T10:11:32Z</time>
      </trkpt>
      <trkpt lat="43.93579" lon="5.1872">
        <ele>444.27</ele>
        <time>2018-02-19T10:11:46Z</time>
      </trkpt>
      <trkpt lat="43.93587" lon="5.18717">
        <ele>445.71</ele>
        <time>2018-02-19T10:11:59Z</time>
      </trkpt>
      <trkpt lat="43.93595" lon="5.18715">
        <ele>447.15</ele>
        <time>2018-02-19T10:12:12Z</time>
      </trkpt>
      <trkpt lat="43.93603" lon="5.18714">
        <ele>449.07</ele>
        <time>2018-02-19T10:12:25Z</time>
      </trkpt>
      <trkpt lat="43.93609" lon="5.18715">
        <ele>449.55</ele>
        <time>2018-02-19T10:12:37Z</time>
      </trkpt>
      <trkpt lat="43.93611" lon="5.18715">
        <ele>450.03</ele>
        <time>2018-02-19T10:12:54Z</time>
      </trkpt>
      <trkpt lat="43.93615" lon="5.18716">
        <ele>451.96</ele>
        <time>2018-02-19T10:13:06Z</time>
      </trkpt>
      <trkpt lat="43.93623" lon="5.18714">
        <ele>453.88</ele>
        <time>2018-02-19T10:13:20Z</time>
      </trkpt>
      <trkpt lat="43.9363" lon="5.1871">
        <ele>456.28</ele>
        <time>2018-02-19T10:13:33Z</time>
      </trkpt>
      <trkpt lat="43.93636" lon="5.18709">
        <ele>457.72</ele>
        <time>2018-02-19T10:13:45Z</time>
      </trkpt>
      <trkpt lat="43.93642" lon="5.18709">
        <ele>459.17</ele>
        <time>2018-02-19T10:13:58Z</time>
      </trkpt>
      <trkpt lat="43.93646" lon="5.18708">
        <ele>460.13</ele>
        <time>2018-02-19T10:14:14Z</time>
      </trkpt>
      <trkpt lat="43.93648" lon="5.18708">
        <ele>461.57</ele>
        <time>2018-02-19T10:14:19Z</time>
      </trkpt>
      <trkpt lat="43.93658" lon="5.18707">
        <ele>463.01</ele>
        <time>2018-02-19T10:14:35Z</time>
      </trkpt>
      <trkpt lat="43.93665" lon="5.18702">
        <ele>463.97</ele>
        <time>2018-02-19T10:14:48Z</time>
      </trkpt>
      <trkpt lat="43.93671" lon="5.187">
        <ele>466.38</ele>
        <time>2018-02-19T10:15:05Z</time>
      </trkpt>
      <trkpt lat="43.93676" lon="5.18695">
        <ele>467.82</ele>
        <time>2018-02-19T10:15:18Z</time>
      </trkpt>
      <trkpt lat="43.93684" lon="5.18692">
        <ele>469.74</ele>
        <time>2018-02-19T10:15:31Z</time>
      </trkpt>
      <trkpt lat="43.93693" lon="5.18689">
        <ele>470.22</ele>
        <time>2018-02-19T10:15:48Z</time>
      </trkpt>
      <trkpt lat="43.93699" lon="5.18694">
        <ele>472.14</ele>
        <time>2018-02-19T10:16:01Z</time>
      </trkpt>
      <trkpt lat="43.93709" lon="5.18689">
        <ele>473.59</ele>
        <time>2018-02-19T10:16:19Z</time>
      </trkpt>
      <trkpt lat="43.93716" lon="5.18685">
        <ele>474.07</ele>
        <time>2018-02-19T10:16:38Z</time>
      </trkpt>
      <trkpt lat="43.93715" lon="5.18685">
        <ele>474.55</ele>
        <time>2018-02-19T10:17:05Z</time>
      </trkpt>
      <trkpt lat="43.93715" lon="5.18685">
        <ele>472.63</ele>
        <time>2018-02-19T10:17:07Z</time>
      </trkpt>
      <trkpt lat="43.93715" lon="5.18682">
        <ele>472.63</ele>
        <time>2018-02-19T10:17:29Z</time>
      </trkpt>
      <trkpt lat="43.93718" lon="5.18676">
        <ele>472.63</ele>
        <time>2018-02-19T10:17:49Z</time>
      </trkpt>
      <trkpt lat="43.93721" lon="5.18663">
        <ele>474.07</ele>
        <time>2018-02-19T10:18:04Z</time>
      </trkpt>
      <trkpt lat="43.93723" lon="5.18655">
        <ele>475.51</ele>
        <time>2018-02-19T10:18:18Z</time>
      </trkpt>
      <trkpt lat="43.9373" lon="5.18641">
        <ele>475.51</ele>
        <time>2018-02-19T10:18:34Z</time>
      </trkpt>
      <trkpt lat="43.93736" lon="5.18621">
        <ele>475.99</ele>
        <time>2018-02-19T10:18:52Z</time>
      </trkpt>
      <trkpt lat="43.93738" lon="5.18604">
        <ele>476.95</ele>
        <time>2018-02-19T10:19:06Z</time>
      </trkpt>
      <trkpt lat="43.9374" lon="5.18581">
        <ele>477.43</ele>
        <time>2018-02-19T10:19:23Z</time>
      </trkpt>
      <trkpt lat="43.93748" lon="5.18563">
        <ele>478.39</ele>
        <time>2018-02-19T10:19:39Z</time>
      </trkpt>
      <trkpt lat="43.93754" lon="5.18549">
        <ele>480.8</ele>
        <time>2018-02-19T10:19:54Z</time>
      </trkpt>
      <trkpt lat="43.93763" lon="5.18541">
        <ele>481.28</ele>
        <time>2018-02-19T10:20:12Z</time>
      </trkpt>
      <trkpt lat="43.93771" lon="5.18532">
        <ele>483.68</ele>
        <time>2018-02-19T10:20:31Z</time>
      </trkpt>
      <trkpt lat="43.93785" lon="5.18524">
        <ele>484.64</ele>
        <time>2018-02-19T10:20:47Z</time>
      </trkpt>
      <trkpt lat="43.93796" lon="5.18521">
        <ele>484.64</ele>
        <time>2018-02-19T10:20:53Z</time>
      </trkpt>
      <trkpt lat="43.9382" lon="5.18512">
        <ele>486.08</ele>
        <time>2018-02-19T10:21:12Z</time>
      </trkpt>
      <trkpt lat="43.93832" lon="5.18509">
        <ele>487.05</ele>
        <time>2018-02-19T10:21:27Z</time>
      </trkpt>
      <trkpt lat="43.93841" lon="5.18503">
        <ele>488.97</ele>
        <time>2018-02-19T10:21:40Z</time>
      </trkpt>
      <trkpt lat="43.93858" lon="5.18496">
        <ele>490.89</ele>
        <time>2018-02-19T10:21:56Z</time>
      </trkpt>
      <trkpt lat="43.93868" lon="5.18481">
        <ele>492.33</ele>
        <time>2018-02-19T10:22:11Z</time>
      </trkpt>
      <trkpt lat="43.93876" lon="5.18471">
        <ele>495.22</ele>
        <time>2018-02-19T10:22:27Z</time>
      </trkpt>
      <trkpt lat="43.9388" lon="5.1846">
        <ele>497.62</ele>
        <time>2018-02-19T10:22:42Z</time>
      </trkpt>
      <trkpt lat="43.93883" lon="5.1845">
        <ele>500.02</ele>
        <time>2018-02-19T10:22:57Z</time>
      </trkpt>
      <trkpt lat="43.93891" lon="5.18441">
        <ele>501.95</ele>
        <time>2018-02-19T10:23:13Z</time>
      </trkpt>
      <trkpt lat="43.93898" lon="5.18431">
        <ele>504.35</ele>
        <time>2018-02-19T10:23:29Z</time>
      </trkpt>
      <trkpt lat="43.93902" lon="5.18427">
        <ele>506.27</ele>
        <time>2018-02-19T10:23:47Z</time>
      </trkpt>
      <trkpt lat="43.93908" lon="5.18424">
        <ele>506.75</ele>
        <time>2018-02-19T10:24:18Z</time>
      </trkpt>
      <trkpt lat="43.93914" lon="5.18414">
        <ele>509.16</ele>
        <time>2018-02-19T10:24:37Z</time>
      </trkpt>
      <trkpt lat="43.93924" lon="5.18405">
        <ele>512.52</ele>
        <time>2018-02-19T10:24:55Z</time>
      </trkpt>
      <trkpt lat="43.93936" lon="5.18397">
        <ele>514.44</ele>
        <time>2018-02-19T10:25:13Z</time>
      </trkpt>
      <trkpt lat="43.93946" lon="5.18392">
        <ele>516.37</ele>
        <time>2018-02-19T10:25:28Z</time>
      </trkpt>
      <trkpt lat="43.93956" lon="5.18388">
        <ele>516.85</ele>
        <time>2018-02-19T10:25:43Z</time>
      </trkpt>
      <trkpt lat="43.93966" lon="5.1838">
        <ele>519.25</ele>
        <time>2018-02-19T10:25:58Z</time>
      </trkpt>
      <trkpt lat="43.93974" lon="5.18372">
        <ele>521.65</ele>
        <time>2018-02-19T10:26:13Z</time>
      </trkpt>
      <trkpt lat="43.93983" lon="5.18362">
        <ele>524.06</ele>
        <time>2018-02-19T10:26:30Z</time>
      </trkpt>
      <trkpt lat="43.9399" lon="5.18355">
        <ele>525.5</ele>
        <time>2018-02-19T10:26:45Z</time>
      </trkpt>
      <trkpt lat="43.94001" lon="5.18354">
        <ele>526.94</ele>
        <time>2018-02-19T10:26:59Z</time>
      </trkpt>
      <trkpt lat="43.94009" lon="5.1835">
        <ele>528.38</ele>
        <time>2018-02-19T10:27:15Z</time>
      </trkpt>
      <trkpt lat="43.94012" lon="5.18346">
        <ele>530.3</ele>
        <time>2018-02-19T10:27:32Z</time>
      </trkpt>
      <trkpt lat="43.94014" lon="5.18347">
        <ele>529.34</ele>
        <time>2018-02-19T10:27:41Z</time>
      </trkpt>
      <trkpt lat="43.94014" lon="5.18346">
        <ele>534.63</ele>
        <time>2018-02-19T10:27:43Z</time>
      </trkpt>
      <trkpt lat="43.94015" lon="5.18346">
        <ele>530.3</ele>
        <time>2018-02-19T10:27:44Z</time>
      </trkpt>
      <trkpt lat="43.94019" lon="5.18336">
        <ele>532.23</ele>
        <time>2018-02-19T10:28:02Z</time>
      </trkpt>
      <trkpt lat="43.94021" lon="5.18329">
        <ele>534.15</ele>
        <time>2018-02-19T10:28:18Z</time>
      </trkpt>
      <trkpt lat="43.94024" lon="5.18321">
        <ele>536.07</ele>
        <time>2018-02-19T10:28:32Z</time>
      </trkpt>
      <trkpt lat="43.9403" lon="5.18317">
        <ele>537.03</ele>
        <time>2018-02-19T10:28:47Z</time>
      </trkpt>
      <trkpt lat="43.94034" lon="5.18308">
        <ele>537.51</ele>
        <time>2018-02-19T10:29:02Z</time>
      </trkpt>
      <trkpt lat="43.94042" lon="5.183">
        <ele>539.44</ele>
        <time>2018-02-19T10:29:18Z</time>
      </trkpt>
      <trkpt lat="43.94058" lon="5.18289">
        <ele>541.36</ele>
        <time>2018-02-19T10:29:36Z</time>
      </trkpt>
      <trkpt lat="43.94076" lon="5.18282">
        <ele>543.76</ele>
        <time>2018-02-19T10:29:53Z</time>
      </trkpt>
      <trkpt lat="43.94089" lon="5.18281">
        <ele>545.69</ele>
        <time>2018-02-19T10:30:09Z</time>
      </trkpt>
      <trkpt lat="43.94098" lon="5.1828">
        <ele>547.61</ele>
        <time>2018-02-19T10:30:25Z</time>
      </trkpt>
      <trkpt lat="43.94106" lon="5.18277">
        <ele>549.53</ele>
        <time>2018-02-19T10:30:38Z</time>
      </trkpt>
      <trkpt lat="43.94112" lon="5.18276">
        <ele>550.97</ele>
        <time>2018-02-19T10:30:52Z</time>
      </trkpt>
      <trkpt lat="43.94118" lon="5.18277">
        <ele>553.38</ele>
        <time>2018-02-19T10:31:07Z</time>
      </trkpt>
      <trkpt lat="43.94119" lon="5.18277">
        <ele>547.61</ele>
        <time>2018-02-19T10:31:26Z</time>
      </trkpt>
      <trkpt lat="43.94119" lon="5.18277">
        <ele>556.74</ele>
        <time>2018-02-19T10:31:27Z</time>
      </trkpt>
      <trkpt lat="43.94119" lon="5.18276">
        <ele>552.41</ele>
        <time>2018-02-19T10:31:28Z</time>
      </trkpt>
      <trkpt lat="43.94126" lon="5.18273">
        <ele>553.86</ele>
        <time>2018-02-19T10:31:40Z</time>
      </trkpt>
      <trkpt lat="43.94132" lon="5.18273">
        <ele>555.78</ele>
        <time>2018-02-19T10:31:53Z</time>
      </trkpt>
      <trkpt lat="43.9414" lon="5.18275">
        <ele>557.7</ele>
        <time>2018-02-19T10:32:09Z</time>
      </trkpt>
      <trkpt lat="43.94147" lon="5.18276">
        <ele>559.62</ele>
        <time>2018-02-19T10:32:21Z</time>
      </trkpt>
      <trkpt lat="43.94155" lon="5.18273">
        <ele>561.55</ele>
        <time>2018-02-19T10:32:35Z</time>
      </trkpt>
      <trkpt lat="43.94161" lon="5.18267">
        <ele>563.95</ele>
        <time>2018-02-19T10:32:51Z</time>
      </trkpt>
      <trkpt lat="43.94165" lon="5.18264">
        <ele>565.39</ele>
        <time>2018-02-19T10:33:08Z</time>
      </trkpt>
      <trkpt lat="43.94174" lon="5.18261">
        <ele>566.35</ele>
        <time>2018-02-19T10:33:24Z</time>
      </trkpt>
      <trkpt lat="43.94183" lon="5.18252">
        <ele>568.76</ele>
        <time>2018-02-19T10:33:40Z</time>
      </trkpt>
      <trkpt lat="43.94192" lon="5.1824">
        <ele>569.24</ele>
        <time>2018-02-19T10:33:56Z</time>
      </trkpt>
      <trkpt lat="43.94195" lon="5.18237">
        <ele>569.72</ele>
        <time>2018-02-19T10:34:09Z</time>
      </trkpt>
      <trkpt lat="43.94196" lon="5.18231">
        <ele>569.72</ele>
        <time>2018-02-19T10:34:34Z</time>
      </trkpt>
      <trkpt lat="43.94195" lon="5.18233">
        <ele>569.72</ele>
        <time>2018-02-19T10:34:52Z</time>
      </trkpt>
      <trkpt lat="43.94191" lon="5.18233">
        <ele>569.72</ele>
        <time>2018-02-19T10:35:05Z</time>
      </trkpt>
      <trkpt lat="43.94189" lon="5.18235">
        <ele>570.2</ele>
        <time>2018-02-19T10:35:30Z</time>
      </trkpt>
      <trkpt lat="43.9419" lon="5.18235">
        <ele>568.76</ele>
        <time>2018-02-19T10:35:33Z</time>
      </trkpt>
      <trkpt lat="43.94189" lon="5.18234">
        <ele>568.28</ele>
        <time>2018-02-19T10:36:01Z</time>
      </trkpt>
      <trkpt lat="43.94191" lon="5.18236">
        <ele>568.28</ele>
        <time>2018-02-19T10:36:39Z</time>
      </trkpt>
      <trkpt lat="43.94189" lon="5.18236">
        <ele>567.8</ele>
        <time>2018-02-19T10:37:21Z</time>
      </trkpt>
      <trkpt lat="43.94191" lon="5.18234">
        <ele>569.24</ele>
        <time>2018-02-19T10:37:45Z</time>
      </trkpt>
      <trkpt lat="43.9419" lon="5.18234">
        <ele>569.24</ele>
        <time>2018-02-19T10:38:08Z</time>
      </trkpt>
      <trkpt lat="43.94192" lon="5.18237">
        <ele>569.24</ele>
        <time>2018-02-19T10:38:30Z</time>
      </trkpt>
      <trkpt lat="43.94197" lon="5.18237">
        <ele>569.24</ele>
        <time>2018-02-19T10:38:59Z</time>
      </trkpt>
      <trkpt lat="43.94195" lon="5.18237">
        <ele>569.24</ele>
        <time>2018-02-19T10:39:32Z</time>
      </trkpt>
      <trkpt lat="43.94194" lon="5.18239">
        <ele>569.24</ele>
        <time>2018-02-19T10:40:02Z</time>
      </trkpt>
      <trkpt lat="43.94194" lon="5.18238">
        <ele>569.24</ele>
        <time>2018-02-19T10:40:38Z</time>
      </trkpt>
      <trkpt lat="43.94195" lon="5.18237">
        <ele>569.24</ele>
        <time>2018-02-19T10:41:01Z</time>
      </trkpt>
      <trkpt lat="43.94196" lon="5.18238">
        <ele>569.24</ele>
        <time>2018-02-19T10:41:40Z</time>
      </trkpt>
      <trkpt lat="43.94194" lon="5.18234">
        <ele>569.24</ele>
        <time>2018-02-19T10:42:08Z</time>
      </trkpt>
      <trkpt lat="43.94193" lon="5.18235">
        <ele>569.24</ele>
        <time>2018-02-19T10:42:30Z</time>
      </trkpt>
      <trkpt lat="43.94194" lon="5.18236">
        <ele>569.24</ele>
        <time>2018-02-19T10:42:54Z</time>
      </trkpt>
      <trkpt lat="43.94193" lon="5.18238">
        <ele>568.76</ele>
        <time>2018-02-19T10:43:25Z</time>
      </trkpt>
      <trkpt lat="43.94191" lon="5.18237">
        <ele>568.76</ele>
        <time>2018-02-19T10:43:59Z</time>
      </trkpt>
      <trkpt lat="43.94178" lon="5.18238">
        <ele>567.8</ele>
        <time>2018-02-19T10:44:13Z</time>
      </trkpt>
      <trkpt lat="43.94167" lon="5.18239">
        <ele>566.83</ele>
        <time>2018-02-19T10:44:27Z</time>
      </trkpt>
      <trkpt lat="43.94158" lon="5.18239">
        <ele>566.35</ele>
        <time>2018-02-19T10:44:40Z</time>
      </trkpt>
      <trkpt lat="43.94141" lon="5.1824">
        <ele>565.39</ele>
        <time>2018-02-19T10:44:55Z</time>
      </trkpt>
      <trkpt lat="43.9413" lon="5.18242">
        <ele>563.95</ele>
        <time>2018-02-19T10:45:10Z</time>
      </trkpt>
      <trkpt lat="43.9412" lon="5.18243">
        <ele>562.99</ele>
        <time>2018-02-19T10:45:22Z</time>
      </trkpt>
      <trkpt lat="43.94112" lon="5.18245">
        <ele>561.55</ele>
        <time>2018-02-19T10:45:36Z</time>
      </trkpt>
      <trkpt lat="43.94103" lon="5.18242">
        <ele>561.07</ele>
        <time>2018-02-19T10:45:49Z</time>
      </trkpt>
      <trkpt lat="43.94092" lon="5.18238">
        <ele>559.62</ele>
        <time>2018-02-19T10:46:04Z</time>
      </trkpt>
      <trkpt lat="43.94078" lon="5.18236">
        <ele>558.66</ele>
        <time>2018-02-19T10:46:19Z</time>
      </trkpt>
      <trkpt lat="43.94061" lon="5.18238">
        <ele>557.22</ele>
        <time>2018-02-19T10:46:37Z</time>
      </trkpt>
      <trkpt lat="43.94046" lon="5.1824">
        <ele>556.26</ele>
        <time>2018-02-19T10:46:54Z</time>
      </trkpt>
      <trkpt lat="43.94045" lon="5.1824">
        <ele>556.26</ele>
        <time>2018-02-19T10:46:55Z</time>
      </trkpt>
      <trkpt lat="43.94028" lon="5.1825">
        <ele>555.3</ele>
        <time>2018-02-19T10:47:11Z</time>
      </trkpt>
      <trkpt lat="43.94012" lon="5.18254">
        <ele>554.82</ele>
        <time>2018-02-19T10:47:26Z</time>
      </trkpt>
      <trkpt lat="43.94003" lon="5.18253">
        <ele>556.26</ele>
        <time>2018-02-19T10:47:39Z</time>
      </trkpt>
      <trkpt lat="43.93992" lon="5.18256">
        <ele>557.22</ele>
        <time>2018-02-19T10:47:52Z</time>
      </trkpt>
      <trkpt lat="43.93979" lon="5.18254">
        <ele>556.26</ele>
        <time>2018-02-19T10:48:08Z</time>
      </trkpt>
      <trkpt lat="43.93976" lon="5.18253">
        <ele>557.7</ele>
        <time>2018-02-19T10:48:12Z</time>
      </trkpt>
      <trkpt lat="43.93961" lon="5.18257">
        <ele>560.11</ele>
        <time>2018-02-19T10:48:30Z</time>
      </trkpt>
      <trkpt lat="43.93949" lon="5.18258">
        <ele>561.55</ele>
        <time>2018-02-19T10:48:43Z</time>
      </trkpt>
      <trkpt lat="43.93943" lon="5.18258">
        <ele>562.03</ele>
        <time>2018-02-19T10:48:49Z</time>
      </trkpt>
      <trkpt lat="43.93935" lon="5.18257">
        <ele>562.51</ele>
        <time>2018-02-19T10:48:57Z</time>
      </trkpt>
      <trkpt lat="43.93921" lon="5.18259">
        <ele>562.51</ele>
        <time>2018-02-19T10:49:11Z</time>
      </trkpt>
      <trkpt lat="43.93909" lon="5.18262">
        <ele>562.51</ele>
        <time>2018-02-19T10:49:22Z</time>
      </trkpt>
      <trkpt lat="43.939" lon="5.18261">
        <ele>562.51</ele>
        <time>2018-02-19T10:49:34Z</time>
      </trkpt>
      <trkpt lat="43.93885" lon="5.18258">
        <ele>561.07</ele>
        <time>2018-02-19T10:49:49Z</time>
      </trkpt>
      <trkpt lat="43.93875" lon="5.18253">
        <ele>560.11</ele>
        <time>2018-02-19T10:50:01Z</time>
      </trkpt>
      <trkpt lat="43.93867" lon="5.18248">
        <ele>558.66</ele>
        <time>2018-02-19T10:50:13Z</time>
      </trkpt>
      <trkpt lat="43.93856" lon="5.18243">
        <ele>557.7</ele>
        <time>2018-02-19T10:50:25Z</time>
      </trkpt>
      <trkpt lat="43.93844" lon="5.18239">
        <ele>555.78</ele>
        <time>2018-02-19T10:50:39Z</time>
      </trkpt>
      <trkpt lat="43.93828" lon="5.18231">
        <ele>553.86</ele>
        <time>2018-02-19T10:50:56Z</time>
      </trkpt>
      <trkpt lat="43.93817" lon="5.18229">
        <ele>552.41</ele>
        <time>2018-02-19T10:51:09Z</time>
      </trkpt>
      <trkpt lat="43.93806" lon="5.18229">
        <ele>551.93</ele>
        <time>2018-02-19T10:51:22Z</time>
      </trkpt>
      <trkpt lat="43.93794" lon="5.18228">
        <ele>550.97</ele>
        <time>2018-02-19T10:51:34Z</time>
      </trkpt>
      <trkpt lat="43.93784" lon="5.18228">
        <ele>550.49</ele>
        <time>2018-02-19T10:51:46Z</time>
      </trkpt>
      <trkpt lat="43.9377" lon="5.18228">
        <ele>549.53</ele>
        <time>2018-02-19T10:52:00Z</time>
      </trkpt>
      <trkpt lat="43.9376" lon="5.18221">
        <ele>548.57</ele>
        <time>2018-02-19T10:52:12Z</time>
      </trkpt>
      <trkpt lat="43.93751" lon="5.18218">
        <ele>547.13</ele>
        <time>2018-02-19T10:52:25Z</time>
      </trkpt>
      <trkpt lat="43.93737" lon="5.18215">
        <ele>545.69</ele>
        <time>2018-02-19T10:52:42Z</time>
      </trkpt>
      <trkpt lat="43.93726" lon="5.18213">
        <ele>544.72</ele>
        <time>2018-02-19T10:52:56Z</time>
      </trkpt>
      <trkpt lat="43.93711" lon="5.18211">
        <ele>543.28</ele>
        <time>2018-02-19T10:53:11Z</time>
      </trkpt>
      <trkpt lat="43.93698" lon="5.18214">
        <ele>541.36</ele>
        <time>2018-02-19T10:53:25Z</time>
      </trkpt>
      <trkpt lat="43.93684" lon="5.18215">
        <ele>539.92</ele>
        <time>2018-02-19T10:53:39Z</time>
      </trkpt>
      <trkpt lat="43.93674" lon="5.18211">
        <ele>538.48</ele>
        <time>2018-02-19T10:53:53Z</time>
      </trkpt>
      <trkpt lat="43.93663" lon="5.18209">
        <ele>537.03</ele>
        <time>2018-02-19T10:54:06Z</time>
      </trkpt>
      <trkpt lat="43.93648" lon="5.18209">
        <ele>535.11</ele>
        <time>2018-02-19T10:54:19Z</time>
      </trkpt>
      <trkpt lat="43.93635" lon="5.18205">
        <ele>532.71</ele>
        <time>2018-02-19T10:54:35Z</time>
      </trkpt>
      <trkpt lat="43.93624" lon="5.18201">
        <ele>531.27</ele>
        <time>2018-02-19T10:54:50Z</time>
      </trkpt>
      <trkpt lat="43.93615" lon="5.18197">
        <ele>529.34</ele>
        <time>2018-02-19T10:55:05Z</time>
      </trkpt>
      <trkpt lat="43.936" lon="5.18192">
        <ele>527.9</ele>
        <time>2018-02-19T10:55:17Z</time>
      </trkpt>
      <trkpt lat="43.9359" lon="5.18191">
        <ele>525.98</ele>
        <time>2018-02-19T10:55:29Z</time>
      </trkpt>
      <trkpt lat="43.93579" lon="5.18188">
        <ele>525.02</ele>
        <time>2018-02-19T10:55:44Z</time>
      </trkpt>
      <trkpt lat="43.9357" lon="5.18186">
        <ele>523.09</ele>
        <time>2018-02-19T10:55:56Z</time>
      </trkpt>
      <trkpt lat="43.93557" lon="5.18183">
        <ele>521.17</ele>
        <time>2018-02-19T10:56:11Z</time>
      </trkpt>
      <trkpt lat="43.93551" lon="5.18184">
        <ele>520.21</ele>
        <time>2018-02-19T10:56:24Z</time>
      </trkpt>
      <trkpt lat="43.93554" lon="5.18183">
        <ele>519.73</ele>
        <time>2018-02-19T10:56:41Z</time>
      </trkpt>
      <trkpt lat="43.93555" lon="5.18169">
        <ele>520.21</ele>
        <time>2018-02-19T10:56:54Z</time>
      </trkpt>
      <trkpt lat="43.93551" lon="5.18156">
        <ele>520.21</ele>
        <time>2018-02-19T10:57:08Z</time>
      </trkpt>
      <trkpt lat="43.93546" lon="5.18142">
        <ele>519.73</ele>
        <time>2018-02-19T10:57:19Z</time>
      </trkpt>
      <trkpt lat="43.93535" lon="5.1812">
        <ele>518.77</ele>
        <time>2018-02-19T10:57:36Z</time>
      </trkpt>
      <trkpt lat="43.93529" lon="5.18105">
        <ele>518.77</ele>
        <time>2018-02-19T10:57:49Z</time>
      </trkpt>
      <trkpt lat="43.93526" lon="5.18092">
        <ele>518.77</ele>
        <time>2018-02-19T10:58:03Z</time>
      </trkpt>
      <trkpt lat="43.93514" lon="5.18081">
        <ele>518.29</ele>
        <time>2018-02-19T10:58:19Z</time>
      </trkpt>
      <trkpt lat="43.93508" lon="5.18072">
        <ele>518.29</ele>
        <time>2018-02-19T10:58:31Z</time>
      </trkpt>
      <trkpt lat="43.93495" lon="5.18063">
        <ele>517.81</ele>
        <time>2018-02-19T10:58:47Z</time>
      </trkpt>
      <trkpt lat="43.93485" lon="5.18055">
        <ele>517.33</ele>
        <time>2018-02-19T10:59:01Z</time>
      </trkpt>
      <trkpt lat="43.93473" lon="5.18046">
        <ele>516.85</ele>
        <time>2018-02-19T10:59:15Z</time>
      </trkpt>
      <trkpt lat="43.93462" lon="5.18039">
        <ele>515.4</ele>
        <time>2018-02-19T10:59:28Z</time>
      </trkpt>
      <trkpt lat="43.93447" lon="5.18019">
        <ele>513.48</ele>
        <time>2018-02-19T10:59:45Z</time>
      </trkpt>
      <trkpt lat="43.93435" lon="5.18015">
        <ele>512.52</ele>
        <time>2018-02-19T10:59:58Z</time>
      </trkpt>
      <trkpt lat="43.93432" lon="5.18015">
        <ele>512.52</ele>
        <time>2018-02-19T11:00:01Z</time>
      </trkpt>
      <trkpt lat="43.93425" lon="5.18026">
        <ele>511.56</ele>
        <time>2018-02-19T11:00:12Z</time>
      </trkpt>
      <trkpt lat="43.93416" lon="5.1804">
        <ele>510.6</ele>
        <time>2018-02-19T11:00:27Z</time>
      </trkpt>
      <trkpt lat="43.93405" lon="5.18056">
        <ele>508.67</ele>
        <time>2018-02-19T11:00:43Z</time>
      </trkpt>
      <trkpt lat="43.93395" lon="5.18064">
        <ele>507.71</ele>
        <time>2018-02-19T11:00:55Z</time>
      </trkpt>
      <trkpt lat="43.93384" lon="5.18072">
        <ele>505.79</ele>
        <time>2018-02-19T11:01:10Z</time>
      </trkpt>
      <trkpt lat="43.9337" lon="5.1808">
        <ele>503.87</ele>
        <time>2018-02-19T11:01:25Z</time>
      </trkpt>
      <trkpt lat="43.93357" lon="5.18096">
        <ele>501.95</ele>
        <time>2018-02-19T11:01:44Z</time>
      </trkpt>
      <trkpt lat="43.93344" lon="5.18105">
        <ele>500.5</ele>
        <time>2018-02-19T11:01:59Z</time>
      </trkpt>
      <trkpt lat="43.93334" lon="5.18108">
        <ele>499.54</ele>
        <time>2018-02-19T11:02:12Z</time>
      </trkpt>
      <trkpt lat="43.9332" lon="5.18102">
        <ele>499.54</ele>
        <time>2018-02-19T11:02:27Z</time>
      </trkpt>
      <trkpt lat="43.93304" lon="5.18096">
        <ele>499.06</ele>
        <time>2018-02-19T11:02:43Z</time>
      </trkpt>
      <trkpt lat="43.93289" lon="5.18104">
        <ele>499.06</ele>
        <time>2018-02-19T11:02:58Z</time>
      </trkpt>
      <trkpt lat="43.93279" lon="5.18113">
        <ele>500.5</ele>
        <time>2018-02-19T11:03:11Z</time>
      </trkpt>
      <trkpt lat="43.93271" lon="5.18131">
        <ele>499.06</ele>
        <time>2018-02-19T11:03:26Z</time>
      </trkpt>
      <trkpt lat="43.9326" lon="5.18143">
        <ele>498.58</ele>
        <time>2018-02-19T11:03:40Z</time>
      </trkpt>
      <trkpt lat="43.93258" lon="5.18145">
        <ele>498.58</ele>
        <time>2018-02-19T11:03:43Z</time>
      </trkpt>
      <trkpt lat="43.93246" lon="5.18157">
        <ele>497.62</ele>
        <time>2018-02-19T11:03:58Z</time>
      </trkpt>
      <trkpt lat="43.93233" lon="5.18168">
        <ele>496.18</ele>
        <time>2018-02-19T11:04:13Z</time>
      </trkpt>
      <trkpt lat="43.93217" lon="5.18183">
        <ele>494.26</ele>
        <time>2018-02-19T11:04:34Z</time>
      </trkpt>
      <trkpt lat="43.93206" lon="5.18193">
        <ele>492.33</ele>
        <time>2018-02-19T11:04:50Z</time>
      </trkpt>
      <trkpt lat="43.93199" lon="5.18201">
        <ele>490.89</ele>
        <time>2018-02-19T11:05:05Z</time>
      </trkpt>
      <trkpt lat="43.93192" lon="5.18208">
        <ele>489.93</ele>
        <time>2018-02-19T11:05:17Z</time>
      </trkpt>
      <trkpt lat="43.9318" lon="5.18219">
        <ele>488.01</ele>
        <time>2018-02-19T11:05:34Z</time>
      </trkpt>
      <trkpt lat="43.93177" lon="5.18222">
        <ele>488.01</ele>
        <time>2018-02-19T11:05:48Z</time>
      </trkpt>
      <trkpt lat="43.93175" lon="5.18226">
        <ele>488.01</ele>
        <time>2018-02-19T11:06:10Z</time>
      </trkpt>
      <trkpt lat="43.93174" lon="5.18227">
        <ele>487.53</ele>
        <time>2018-02-19T11:06:25Z</time>
      </trkpt>
      <trkpt lat="43.93174" lon="5.18226">
        <ele>487.53</ele>
        <time>2018-02-19T11:06:49Z</time>
      </trkpt>
      <trkpt lat="43.93171" lon="5.18227">
        <ele>487.53</ele>
        <time>2018-02-19T11:07:08Z</time>
      </trkpt>
      <trkpt lat="43.93173" lon="5.18228">
        <ele>487.53</ele>
        <time>2018-02-19T11:07:35Z</time>
      </trkpt>
      <trkpt lat="43.93175" lon="5.18227">
        <ele>487.53</ele>
        <time>2018-02-19T11:07:53Z</time>
      </trkpt>
      <trkpt lat="43.93175" lon="5.18227">
        <ele>487.53</ele>
        <time>2018-02-19T11:08:21Z</time>
      </trkpt>
      <trkpt lat="43.93167" lon="5.1823">
        <ele>487.53</ele>
        <time>2018-02-19T11:08:46Z</time>
      </trkpt>
      <trkpt lat="43.93164" lon="5.18226">
        <ele>487.05</ele>
        <time>2018-02-19T11:09:04Z</time>
      </trkpt>
      <trkpt lat="43.93165" lon="5.18226">
        <ele>487.05</ele>
        <time>2018-02-19T11:09:22Z</time>
      </trkpt>
      <trkpt lat="43.93165" lon="5.18223">
        <ele>487.05</ele>
        <time>2018-02-19T11:09:48Z</time>
      </trkpt>
      <trkpt lat="43.93166" lon="5.18225">
        <ele>487.05</ele>
        <time>2018-02-19T11:10:18Z</time>
      </trkpt>
      <trkpt lat="43.93163" lon="5.18228">
        <ele>486.56</ele>
        <time>2018-02-19T11:10:47Z</time>
      </trkpt>
      <trkpt lat="43.9315" lon="5.18233">
        <ele>485.6</ele>
        <time>2018-02-19T11:11:02Z</time>
      </trkpt>
      <trkpt lat="43.93133" lon="5.18231">
        <ele>484.64</ele>
        <time>2018-02-19T11:11:19Z</time>
      </trkpt>
      <trkpt lat="43.93118" lon="5.18223">
        <ele>483.2</ele>
        <time>2018-02-19T11:11:38Z</time>
      </trkpt>
      <trkpt lat="43.93104" lon="5.18221">
        <ele>481.76</ele>
        <time>2018-02-19T11:11:56Z</time>
      </trkpt>
      <trkpt lat="43.93089" lon="5.18215">
        <ele>480.8</ele>
        <time>2018-02-19T11:12:14Z</time>
      </trkpt>
      <trkpt lat="43.93074" lon="5.1821">
        <ele>479.35</ele>
        <time>2018-02-19T11:12:30Z</time>
      </trkpt>
      <trkpt lat="43.93061" lon="5.1821">
        <ele>477.43</ele>
        <time>2018-02-19T11:12:46Z</time>
      </trkpt>
      <trkpt lat="43.93047" lon="5.1821">
        <ele>475.51</ele>
        <time>2018-02-19T11:13:05Z</time>
      </trkpt>
      <trkpt lat="43.93036" lon="5.18209">
        <ele>473.59</ele>
        <time>2018-02-19T11:13:20Z</time>
      </trkpt>
      <trkpt lat="43.93029" lon="5.18214">
        <ele>472.14</ele>
        <time>2018-02-19T11:13:38Z</time>
      </trkpt>
      <trkpt lat="43.93024" lon="5.18215">
        <ele>470.22</ele>
        <time>2018-02-19T11:13:51Z</time>
      </trkpt>
      <trkpt lat="43.93017" lon="5.18218">
        <ele>468.78</ele>
        <time>2018-02-19T11:14:06Z</time>
      </trkpt>
      <trkpt lat="43.93014" lon="5.18219">
        <ele>467.82</ele>
        <time>2018-02-19T11:14:28Z</time>
      </trkpt>
      <trkpt lat="43.93008" lon="5.18217">
        <ele>465.9</ele>
        <time>2018-02-19T11:14:43Z</time>
      </trkpt>
      <trkpt lat="43.92997" lon="5.18216">
        <ele>464.93</ele>
        <time>2018-02-19T11:14:59Z</time>
      </trkpt>
      <trkpt lat="43.92984" lon="5.18213">
        <ele>463.49</ele>
        <time>2018-02-19T11:15:15Z</time>
      </trkpt>
      <trkpt lat="43.9297" lon="5.18208">
        <ele>462.53</ele>
        <time>2018-02-19T11:15:32Z</time>
      </trkpt>
      <trkpt lat="43.92955" lon="5.18199">
        <ele>462.53</ele>
        <time>2018-02-19T11:15:50Z</time>
      </trkpt>
      <trkpt lat="43.92937" lon="5.18182">
        <ele>462.53</ele>
        <time>2018-02-19T11:16:10Z</time>
      </trkpt>
      <trkpt lat="43.92924" lon="5.18173">
        <ele>461.09</ele>
        <time>2018-02-19T11:16:26Z</time>
      </trkpt>
      <trkpt lat="43.92913" lon="5.18162">
        <ele>458.69</ele>
        <time>2018-02-19T11:16:41Z</time>
      </trkpt>
      <trkpt lat="43.92905" lon="5.18152">
        <ele>457.24</ele>
        <time>2018-02-19T11:16:57Z</time>
      </trkpt>
      <trkpt lat="43.92899" lon="5.1814">
        <ele>455.32</ele>
        <time>2018-02-19T11:17:11Z</time>
      </trkpt>
      <trkpt lat="43.92885" lon="5.1813">
        <ele>454.84</ele>
        <time>2018-02-19T11:17:26Z</time>
      </trkpt>
      <trkpt lat="43.92874" lon="5.18124">
        <ele>454.36</ele>
        <time>2018-02-19T11:17:39Z</time>
      </trkpt>
      <trkpt lat="43.92859" lon="5.18117">
        <ele>455.32</ele>
        <time>2018-02-19T11:17:55Z</time>
      </trkpt>
      <trkpt lat="43.92836" lon="5.18113">
        <ele>455.32</ele>
        <time>2018-02-19T11:18:12Z</time>
      </trkpt>
      <trkpt lat="43.92829" lon="5.1811">
        <ele>455.32</ele>
        <time>2018-02-19T11:18:19Z</time>
      </trkpt>
      <trkpt lat="43.9281" lon="5.18099">
        <ele>455.32</ele>
        <time>2018-02-19T11:18:37Z</time>
      </trkpt>
      <trkpt lat="43.92796" lon="5.18089">
        <ele>454.84</ele>
        <time>2018-02-19T11:18:55Z</time>
      </trkpt>
      <trkpt lat="43.92779" lon="5.18079">
        <ele>454.84</ele>
        <time>2018-02-19T11:19:10Z</time>
      </trkpt>
      <trkpt lat="43.92762" lon="5.18068">
        <ele>453.4</ele>
        <time>2018-02-19T11:19:27Z</time>
      </trkpt>
      <trkpt lat="43.92751" lon="5.18061">
        <ele>453.4</ele>
        <time>2018-02-19T11:19:42Z</time>
      </trkpt>
      <trkpt lat="43.92732" lon="5.18055">
        <ele>452.92</ele>
        <time>2018-02-19T11:19:59Z</time>
      </trkpt>
      <trkpt lat="43.92718" lon="5.18043">
        <ele>452.44</ele>
        <time>2018-02-19T11:20:15Z</time>
      </trkpt>
      <trkpt lat="43.927" lon="5.1803">
        <ele>451.48</ele>
        <time>2018-02-19T11:20:30Z</time>
      </trkpt>
      <trkpt lat="43.92689" lon="5.1802">
        <ele>450.52</ele>
        <time>2018-02-19T11:20:47Z</time>
      </trkpt>
      <trkpt lat="43.92672" lon="5.18007">
        <ele>449.07</ele>
        <time>2018-02-19T11:21:04Z</time>
      </trkpt>
      <trkpt lat="43.92659" lon="5.17996">
        <ele>448.59</ele>
        <time>2018-02-19T11:21:17Z</time>
      </trkpt>
      <trkpt lat="43.92651" lon="5.17989">
        <ele>448.11</ele>
        <time>2018-02-19T11:21:29Z</time>
      </trkpt>
      <trkpt lat="43.92637" lon="5.17972">
        <ele>447.15</ele>
        <time>2018-02-19T11:21:45Z</time>
      </trkpt>
      <trkpt lat="43.92627" lon="5.17959">
        <ele>446.67</ele>
        <time>2018-02-19T11:21:59Z</time>
      </trkpt>
      <trkpt lat="43.92621" lon="5.17947">
        <ele>445.23</ele>
        <time>2018-02-19T11:22:15Z</time>
      </trkpt>
      <trkpt lat="43.92609" lon="5.17945">
        <ele>442.82</ele>
        <time>2018-02-19T11:22:31Z</time>
      </trkpt>
      <trkpt lat="43.92601" lon="5.17947">
        <ele>441.38</ele>
        <time>2018-02-19T11:22:45Z</time>
      </trkpt>
      <trkpt lat="43.92593" lon="5.17935">
        <ele>439.94</ele>
        <time>2018-02-19T11:23:02Z</time>
      </trkpt>
      <trkpt lat="43.9258" lon="5.17923">
        <ele>437.54</ele>
        <time>2018-02-19T11:23:19Z</time>
      </trkpt>
      <trkpt lat="43.92572" lon="5.17909">
        <ele>435.13</ele>
        <time>2018-02-19T11:23:36Z</time>
      </trkpt>
      <trkpt lat="43.92564" lon="5.17895">
        <ele>433.69</ele>
        <time>2018-02-19T11:23:53Z</time>
      </trkpt>
      <trkpt lat="43.92556" lon="5.17886">
        <ele>431.77</ele>
        <time>2018-02-19T11:24:09Z</time>
      </trkpt>
      <trkpt lat="43.92544" lon="5.17886">
        <ele>429.85</ele>
        <time>2018-02-19T11:24:23Z</time>
      </trkpt>
      <trkpt lat="43.92534" lon="5.17888">
        <ele>428.89</ele>
        <time>2018-02-19T11:24:37Z</time>
      </trkpt>
      <trkpt lat="43.92523" lon="5.17889">
        <ele>426.96</ele>
        <time>2018-02-19T11:24:53Z</time>
      </trkpt>
      <trkpt lat="43.92503" lon="5.17903">
        <ele>425.52</ele>
        <time>2018-02-19T11:25:09Z</time>
      </trkpt>
      <trkpt lat="43.9249" lon="5.17902">
        <ele>423.6</ele>
        <time>2018-02-19T11:25:24Z</time>
      </trkpt>
      <trkpt lat="43.92479" lon="5.17902">
        <ele>422.64</ele>
        <time>2018-02-19T11:25:39Z</time>
      </trkpt>
      <trkpt lat="43.92466" lon="5.17901">
        <ele>421.19</ele>
        <time>2018-02-19T11:25:56Z</time>
      </trkpt>
      <trkpt lat="43.92449" lon="5.17895">
        <ele>419.75</ele>
        <time>2018-02-19T11:26:13Z</time>
      </trkpt>
      <trkpt lat="43.92438" lon="5.17894">
        <ele>418.31</ele>
        <time>2018-02-19T11:26:29Z</time>
      </trkpt>
      <trkpt lat="43.92421" lon="5.17895">
        <ele>416.87</ele>
        <time>2018-02-19T11:26:45Z</time>
      </trkpt>
      <trkpt lat="43.92407" lon="5.17891">
        <ele>415.43</ele>
        <time>2018-02-19T11:27:02Z</time>
      </trkpt>
      <trkpt lat="43.9239" lon="5.17887">
        <ele>413.5</ele>
        <time>2018-02-19T11:27:22Z</time>
      </trkpt>
      <trkpt lat="43.92371" lon="5.17883">
        <ele>412.06</ele>
        <time>2018-02-19T11:27:39Z</time>
      </trkpt>
      <trkpt lat="43.92358" lon="5.17885">
        <ele>410.14</ele>
        <time>2018-02-19T11:27:56Z</time>
      </trkpt>
      <trkpt lat="43.92348" lon="5.17895">
        <ele>409.18</ele>
        <time>2018-02-19T11:28:11Z</time>
      </trkpt>
      <trkpt lat="43.9234" lon="5.17897">
        <ele>407.74</ele>
        <time>2018-02-19T11:28:26Z</time>
      </trkpt>
      <trkpt lat="43.9233" lon="5.17909">
        <ele>406.29</ele>
        <time>2018-02-19T11:28:46Z</time>
      </trkpt>
      <trkpt lat="43.92335" lon="5.17925">
        <ele>405.81</ele>
        <time>2018-02-19T11:29:02Z</time>
      </trkpt>
      <trkpt lat="43.92338" lon="5.17932">
        <ele>405.33</ele>
        <time>2018-02-19T11:29:15Z</time>
      </trkpt>
      <trkpt lat="43.92339" lon="5.17932">
        <ele>405.33</ele>
        <time>2018-02-19T11:29:34Z</time>
      </trkpt>
      <trkpt lat="43.92337" lon="5.17933">
        <ele>404.85</ele>
        <time>2018-02-19T11:29:57Z</time>
      </trkpt>
      <trkpt lat="43.92339" lon="5.17936">
        <ele>406.29</ele>
        <time>2018-02-19T11:30:22Z</time>
      </trkpt>
      <trkpt lat="43.92338" lon="5.17935">
        <ele>405.33</ele>
        <time>2018-02-19T11:30:44Z</time>
      </trkpt>
      <trkpt lat="43.92337" lon="5.17937">
        <ele>405.33</ele>
        <time>2018-02-19T11:31:23Z</time>
      </trkpt>
      <trkpt lat="43.92336" lon="5.17936">
        <ele>405.81</ele>
        <time>2018-02-19T11:32:04Z</time>
      </trkpt>
      <trkpt lat="43.92337" lon="5.17934">
        <ele>405.81</ele>
        <time>2018-02-19T11:32:45Z</time>
      </trkpt>
      <trkpt lat="43.92338" lon="5.17936">
        <ele>406.29</ele>
        <time>2018-02-19T11:33:27Z</time>
      </trkpt>
      <trkpt lat="43.92337" lon="5.17936">
        <ele>406.77</ele>
        <time>2018-02-19T11:34:15Z</time>
      </trkpt>
      <trkpt lat="43.92336" lon="5.17938">
        <ele>407.26</ele>
        <time>2018-02-19T11:34:58Z</time>
      </trkpt>
      <trkpt lat="43.92336" lon="5.17939">
        <ele>407.74</ele>
        <time>2018-02-19T11:35:45Z</time>
      </trkpt>
      <trkpt lat="43.92338" lon="5.17938">
        <ele>407.74</ele>
        <time>2018-02-19T11:36:32Z</time>
      </trkpt>
      <trkpt lat="43.92337" lon="5.17939">
        <ele>408.22</ele>
        <time>2018-02-19T11:37:21Z</time>
      </trkpt>
      <trkpt lat="43.92337" lon="5.17939">
        <ele>408.7</ele>
        <time>2018-02-19T11:37:56Z</time>
      </trkpt>
      <trkpt lat="43.92339" lon="5.17937">
        <ele>408.7</ele>
        <time>2018-02-19T11:38:49Z</time>
      </trkpt>
      <trkpt lat="43.92339" lon="5.17936">
        <ele>409.18</ele>
        <time>2018-02-19T11:39:31Z</time>
      </trkpt>
      <trkpt lat="43.92339" lon="5.17938">
        <ele>409.18</ele>
        <time>2018-02-19T11:40:11Z</time>
      </trkpt>
      <trkpt lat="43.92339" lon="5.17939">
        <ele>409.66</ele>
        <time>2018-02-19T11:40:50Z</time>
      </trkpt>
      <trkpt lat="43.92339" lon="5.17937">
        <ele>409.66</ele>
        <time>2018-02-19T11:41:30Z</time>
      </trkpt>
      <trkpt lat="43.92337" lon="5.17937">
        <ele>410.14</ele>
        <time>2018-02-19T11:42:16Z</time>
      </trkpt>
      <trkpt lat="43.92337" lon="5.17936">
        <ele>410.62</ele>
        <time>2018-02-19T11:43:04Z</time>
      </trkpt>
      <trkpt lat="43.92338" lon="5.17935">
        <ele>410.62</ele>
        <time>2018-02-19T11:43:32Z</time>
      </trkpt>
      <trkpt lat="43.92338" lon="5.17935">
        <ele>410.62</ele>
        <time>2018-02-19T11:44:02Z</time>
      </trkpt>
      <trkpt lat="43.92338" lon="5.17934">
        <ele>411.1</ele>
        <time>2018-02-19T11:44:34Z</time>
      </trkpt>
      <trkpt lat="43.92339" lon="5.17935">
        <ele>411.1</ele>
        <time>2018-02-19T11:45:03Z</time>
      </trkpt>
      <trkpt lat="43.92337" lon="5.17936">
        <ele>411.58</ele>
        <time>2018-02-19T11:45:29Z</time>
      </trkpt>
      <trkpt lat="43.92335" lon="5.17941">
        <ele>411.58</ele>
        <time>2018-02-19T11:46:07Z</time>
      </trkpt>
      <trkpt lat="43.92335" lon="5.17941">
        <ele>412.06</ele>
        <time>2018-02-19T11:46:38Z</time>
      </trkpt>
      <trkpt lat="43.92334" lon="5.17939">
        <ele>412.06</ele>
        <time>2018-02-19T11:47:10Z</time>
      </trkpt>
      <trkpt lat="43.92337" lon="5.17936">
        <ele>412.06</ele>
        <time>2018-02-19T11:47:50Z</time>
      </trkpt>
      <trkpt lat="43.92337" lon="5.17934">
        <ele>412.06</ele>
        <time>2018-02-19T11:48:19Z</time>
      </trkpt>
      <trkpt lat="43.92335" lon="5.17937">
        <ele>412.06</ele>
        <time>2018-02-19T11:48:50Z</time>
      </trkpt>
      <trkpt lat="43.92335" lon="5.17938">
        <ele>413.5</ele>
        <time>2018-02-19T11:49:25Z</time>
      </trkpt>
      <trkpt lat="43.92335" lon="5.17937">
        <ele>413.5</ele>
        <time>2018-02-19T11:50:06Z</time>
      </trkpt>
      <trkpt lat="43.92337" lon="5.17938">
        <ele>413.5</ele>
        <time>2018-02-19T11:50:38Z</time>
      </trkpt>
      <trkpt lat="43.92337" lon="5.17939">
        <ele>413.5</ele>
        <time>2018-02-19T11:51:05Z</time>
      </trkpt>
      <trkpt lat="43.92336" lon="5.17939">
        <ele>413.5</ele>
        <time>2018-02-19T11:51:38Z</time>
      </trkpt>
      <trkpt lat="43.92336" lon="5.17939">
        <ele>413.5</ele>
        <time>2018-02-19T11:52:15Z</time>
      </trkpt>
      <trkpt lat="43.92336" lon="5.17939">
        <ele>413.98</ele>
        <time>2018-02-19T11:52:51Z</time>
      </trkpt>
      <trkpt lat="43.92334" lon="5.1794">
        <ele>413.98</ele>
        <time>2018-02-19T11:53:22Z</time>
      </trkpt>
      <trkpt lat="43.92335" lon="5.1794">
        <ele>414.47</ele>
        <time>2018-02-19T11:53:59Z</time>
      </trkpt>
      <trkpt lat="43.92337" lon="5.1794">
        <ele>414.47</ele>
        <time>2018-02-19T11:54:32Z</time>
      </trkpt>
      <trkpt lat="43.92336" lon="5.1794">
        <ele>414.95</ele>
        <time>2018-02-19T11:55:12Z</time>
      </trkpt>
      <trkpt lat="43.92336" lon="5.17938">
        <ele>414.95</ele>
        <time>2018-02-19T11:55:51Z</time>
      </trkpt>
      <trkpt lat="43.92334" lon="5.17936">
        <ele>415.43</ele>
        <time>2018-02-19T11:56:24Z</time>
      </trkpt>
      <trkpt lat="43.92336" lon="5.17939">
        <ele>415.43</ele>
        <time>2018-02-19T11:57:01Z</time>
      </trkpt>
      <trkpt lat="43.92337" lon="5.17937">
        <ele>415.43</ele>
        <time>2018-02-19T11:57:32Z</time>
      </trkpt>
      <trkpt lat="43.92336" lon="5.17937">
        <ele>415.43</ele>
        <time>2018-02-19T11:58:02Z</time>
      </trkpt>
      <trkpt lat="43.92335" lon="5.17937">
        <ele>415.91</ele>
        <time>2018-02-19T11:58:32Z</time>
      </trkpt>
      <trkpt lat="43.92336" lon="5.17938">
        <ele>415.91</ele>
        <time>2018-02-19T11:59:02Z</time>
      </trkpt>
      <trkpt lat="43.92336" lon="5.17938">
        <ele>415.91</ele>
        <time>2018-02-19T11:59:32Z</time>
      </trkpt>
      <trkpt lat="43.92336" lon="5.17938">
        <ele>416.39</ele>
        <time>2018-02-19T12:00:09Z</time>
      </trkpt>
      <trkpt lat="43.92335" lon="5.17939">
        <ele>416.87</ele>
        <time>2018-02-19T12:00:44Z</time>
      </trkpt>
      <trkpt lat="43.92334" lon="5.17941">
        <ele>416.87</ele>
        <time>2018-02-19T12:01:11Z</time>
      </trkpt>
      <trkpt lat="43.92334" lon="5.1794">
        <ele>416.87</ele>
        <time>2018-02-19T12:01:47Z</time>
      </trkpt>
      <trkpt lat="43.92335" lon="5.1794">
        <ele>416.87</ele>
        <time>2018-02-19T12:02:24Z</time>
      </trkpt>
      <trkpt lat="43.92335" lon="5.1794">
        <ele>417.35</ele>
        <time>2018-02-19T12:03:00Z</time>
      </trkpt>
      <trkpt lat="43.92334" lon="5.17941">
        <ele>417.35</ele>
        <time>2018-02-19T12:03:32Z</time>
      </trkpt>
      <trkpt lat="43.92333" lon="5.17941">
        <ele>417.35</ele>
        <time>2018-02-19T12:04:03Z</time>
      </trkpt>
      <trkpt lat="43.92333" lon="5.17943">
        <ele>417.83</ele>
        <time>2018-02-19T12:04:44Z</time>
      </trkpt>
      <trkpt lat="43.92333" lon="5.17941">
        <ele>418.31</ele>
        <time>2018-02-19T12:05:12Z</time>
      </trkpt>
      <trkpt lat="43.92334" lon="5.17939">
        <ele>418.31</ele>
        <time>2018-02-19T12:05:58Z</time>
      </trkpt>
      <trkpt lat="43.92335" lon="5.17937">
        <ele>418.31</ele>
        <time>2018-02-19T12:06:34Z</time>
      </trkpt>
      <trkpt lat="43.92334" lon="5.17937">
        <ele>418.31</ele>
        <time>2018-02-19T12:07:04Z</time>
      </trkpt>
      <trkpt lat="43.92335" lon="5.17937">
        <ele>418.31</ele>
        <time>2018-02-19T12:07:36Z</time>
      </trkpt>
      <trkpt lat="43.92335" lon="5.17938">
        <ele>418.31</ele>
        <time>2018-02-19T12:08:06Z</time>
      </trkpt>
      <trkpt lat="43.92335" lon="5.1794">
        <ele>418.79</ele>
        <time>2018-02-19T12:08:40Z</time>
      </trkpt>
      <trkpt lat="43.92334" lon="5.17938">
        <ele>418.31</ele>
        <time>2018-02-19T12:09:16Z</time>
      </trkpt>
      <trkpt lat="43.92331" lon="5.17938">
        <ele>418.31</ele>
        <time>2018-02-19T12:09:49Z</time>
      </trkpt>
      <trkpt lat="43.92335" lon="5.17939">
        <ele>418.31</ele>
        <time>2018-02-19T12:10:15Z</time>
      </trkpt>
      <trkpt lat="43.92336" lon="5.17938">
        <ele>418.31</ele>
        <time>2018-02-19T12:10:46Z</time>
      </trkpt>
      <trkpt lat="43.92336" lon="5.17938">
        <ele>418.31</ele>
        <time>2018-02-19T12:11:18Z</time>
      </trkpt>
      <trkpt lat="43.92337" lon="5.17937">
        <ele>418.31</ele>
        <time>2018-02-19T12:11:49Z</time>
      </trkpt>
      <trkpt lat="43.92337" lon="5.1794">
        <ele>418.31</ele>
        <time>2018-02-19T12:12:17Z</time>
      </trkpt>
      <trkpt lat="43.92337" lon="5.17938">
        <ele>418.31</ele>
        <time>2018-02-19T12:12:46Z</time>
      </trkpt>
      <trkpt lat="43.92336" lon="5.17939">
        <ele>418.31</ele>
        <time>2018-02-19T12:13:21Z</time>
      </trkpt>
      <trkpt lat="43.92335" lon="5.1794">
        <ele>418.31</ele>
        <time>2018-02-19T12:13:51Z</time>
      </trkpt>
      <trkpt lat="43.92334" lon="5.17939">
        <ele>418.31</ele>
        <time>2018-02-19T12:14:17Z</time>
      </trkpt>
      <trkpt lat="43.92334" lon="5.1794">
        <ele>418.79</ele>
        <time>2018-02-19T12:14:46Z</time>
      </trkpt>
      <trkpt lat="43.92332" lon="5.1794">
        <ele>418.79</ele>
        <time>2018-02-19T12:15:11Z</time>
      </trkpt>
      <trkpt lat="43.92331" lon="5.17938">
        <ele>418.79</ele>
        <time>2018-02-19T12:15:35Z</time>
      </trkpt>
      <trkpt lat="43.92332" lon="5.17937">
        <ele>418.79</ele>
        <time>2018-02-19T12:15:59Z</time>
      </trkpt>
      <trkpt lat="43.92335" lon="5.17938">
        <ele>418.79</ele>
        <time>2018-02-19T12:16:20Z</time>
      </trkpt>
      <trkpt lat="43.92336" lon="5.1794">
        <ele>418.79</ele>
        <time>2018-02-19T12:16:40Z</time>
      </trkpt>
      <trkpt lat="43.92337" lon="5.17939">
        <ele>418.79</ele>
        <time>2018-02-19T12:17:13Z</time>
      </trkpt>
      <trkpt lat="43.92334" lon="5.17939">
        <ele>418.79</ele>
        <time>2018-02-19T12:17:40Z</time>
      </trkpt>
      <trkpt lat="43.92334" lon="5.17939">
        <ele>418.79</ele>
        <time>2018-02-19T12:18:05Z</time>
      </trkpt>
      <trkpt lat="43.92334" lon="5.1794">
        <ele>418.79</ele>
        <time>2018-02-19T12:18:33Z</time>
      </trkpt>
      <trkpt lat="43.92333" lon="5.17941">
        <ele>418.79</ele>
        <time>2018-02-19T12:18:49Z</time>
      </trkpt>
      <trkpt lat="43.92334" lon="5.17937">
        <ele>420.23</ele>
        <time>2018-02-19T12:19:03Z</time>
      </trkpt>
      <trkpt lat="43.92335" lon="5.17934">
        <ele>420.23</ele>
        <time>2018-02-19T12:19:26Z</time>
      </trkpt>
      <trkpt lat="43.92333" lon="5.17937">
        <ele>420.23</ele>
        <time>2018-02-19T12:19:48Z</time>
      </trkpt>
      <trkpt lat="43.92336" lon="5.17938">
        <ele>420.23</ele>
        <time>2018-02-19T12:20:08Z</time>
      </trkpt>
      <trkpt lat="43.92339" lon="5.17936">
        <ele>420.23</ele>
        <time>2018-02-19T12:20:37Z</time>
      </trkpt>
      <trkpt lat="43.92341" lon="5.17934">
        <ele>419.75</ele>
        <time>2018-02-19T12:21:01Z</time>
      </trkpt>
      <trkpt lat="43.92338" lon="5.17926">
        <ele>419.75</ele>
        <time>2018-02-19T12:21:19Z</time>
      </trkpt>
      <trkpt lat="43.92341" lon="5.17927">
        <ele>419.75</ele>
        <time>2018-02-19T12:21:45Z</time>
      </trkpt>
      <trkpt lat="43.92339" lon="5.17927">
        <ele>420.23</ele>
        <time>2018-02-19T12:22:12Z</time>
      </trkpt>
      <trkpt lat="43.92337" lon="5.17931">
        <ele>420.23</ele>
        <time>2018-02-19T12:22:27Z</time>
      </trkpt>
      <trkpt lat="43.92338" lon="5.17933">
        <ele>420.23</ele>
        <time>2018-02-19T12:22:52Z</time>
      </trkpt>
      <trkpt lat="43.92339" lon="5.17935">
        <ele>420.23</ele>
        <time>2018-02-19T12:23:16Z</time>
      </trkpt>
      <trkpt lat="43.92338" lon="5.17935">
        <ele>420.23</ele>
        <time>2018-02-19T12:23:29Z</time>
      </trkpt>
      <trkpt lat="43.92337" lon="5.1793">
        <ele>419.75</ele>
        <time>2018-02-19T12:23:47Z</time>
      </trkpt>
      <trkpt lat="43.92337" lon="5.17931">
        <ele>420.71</ele>
        <time>2018-02-19T12:24:05Z</time>
      </trkpt>
      <trkpt lat="43.92336" lon="5.17932">
        <ele>419.27</ele>
        <time>2018-02-19T12:24:08Z</time>
      </trkpt>
      <trkpt lat="43.92334" lon="5.17936">
        <ele>420.71</ele>
        <time>2018-02-19T12:24:13Z</time>
      </trkpt>
      <trkpt lat="43.92332" lon="5.17929">
        <ele>420.71</ele>
        <time>2018-02-19T12:24:28Z</time>
      </trkpt>
      <trkpt lat="43.92332" lon="5.17927">
        <ele>420.23</ele>
        <time>2018-02-19T12:24:40Z</time>
      </trkpt>
      <trkpt lat="43.92332" lon="5.17926">
        <ele>420.23</ele>
        <time>2018-02-19T12:25:04Z</time>
      </trkpt>
      <trkpt lat="43.92333" lon="5.17925">
        <ele>420.23</ele>
        <time>2018-02-19T12:25:27Z</time>
      </trkpt>
      <trkpt lat="43.92333" lon="5.17924">
        <ele>420.23</ele>
        <time>2018-02-19T12:25:52Z</time>
      </trkpt>
      <trkpt lat="43.92333" lon="5.17925">
        <ele>420.71</ele>
        <time>2018-02-19T12:26:11Z</time>
      </trkpt>
      <trkpt lat="43.92333" lon="5.17926">
        <ele>420.23</ele>
        <time>2018-02-19T12:26:32Z</time>
      </trkpt>
      <trkpt lat="43.92333" lon="5.17927">
        <ele>420.23</ele>
        <time>2018-02-19T12:26:50Z</time>
      </trkpt>
      <trkpt lat="43.92331" lon="5.17932">
        <ele>420.71</ele>
        <time>2018-02-19T12:27:12Z</time>
      </trkpt>
      <trkpt lat="43.92322" lon="5.1794">
        <ele>419.27</ele>
        <time>2018-02-19T12:27:27Z</time>
      </trkpt>
      <trkpt lat="43.92311" lon="5.17934">
        <ele>418.31</ele>
        <time>2018-02-19T12:27:43Z</time>
      </trkpt>
      <trkpt lat="43.92311" lon="5.17933">
        <ele>417.83</ele>
        <time>2018-02-19T12:28:01Z</time>
      </trkpt>
      <trkpt lat="43.9231" lon="5.17931">
        <ele>417.35</ele>
        <time>2018-02-19T12:28:18Z</time>
      </trkpt>
      <trkpt lat="43.92305" lon="5.17931">
        <ele>417.35</ele>
        <time>2018-02-19T12:28:37Z</time>
      </trkpt>
      <trkpt lat="43.92296" lon="5.17921">
        <ele>416.39</ele>
        <time>2018-02-19T12:28:53Z</time>
      </trkpt>
      <trkpt lat="43.92283" lon="5.17915">
        <ele>414.95</ele>
        <time>2018-02-19T12:29:10Z</time>
      </trkpt>
      <trkpt lat="43.92275" lon="5.17903">
        <ele>413.98</ele>
        <time>2018-02-19T12:29:27Z</time>
      </trkpt>
      <trkpt lat="43.92264" lon="5.17895">
        <ele>412.54</ele>
        <time>2018-02-19T12:29:44Z</time>
      </trkpt>
      <trkpt lat="43.92252" lon="5.17886">
        <ele>410.62</ele>
        <time>2018-02-19T12:29:59Z</time>
      </trkpt>
      <trkpt lat="43.92242" lon="5.17878">
        <ele>409.18</ele>
        <time>2018-02-19T12:30:13Z</time>
      </trkpt>
      <trkpt lat="43.92229" lon="5.17872">
        <ele>406.77</ele>
        <time>2018-02-19T12:30:32Z</time>
      </trkpt>
      <trkpt lat="43.92218" lon="5.17864">
        <ele>405.33</ele>
        <time>2018-02-19T12:30:47Z</time>
      </trkpt>
      <trkpt lat="43.92206" lon="5.17859">
        <ele>402.93</ele>
        <time>2018-02-19T12:31:04Z</time>
      </trkpt>
      <trkpt lat="43.92198" lon="5.17857">
        <ele>401.01</ele>
        <time>2018-02-19T12:31:18Z</time>
      </trkpt>
      <trkpt lat="43.92192" lon="5.17854">
        <ele>399.57</ele>
        <time>2018-02-19T12:31:31Z</time>
      </trkpt>
      <trkpt lat="43.92183" lon="5.17848">
        <ele>397.64</ele>
        <time>2018-02-19T12:31:46Z</time>
      </trkpt>
      <trkpt lat="43.92173" lon="5.17848">
        <ele>396.2</ele>
        <time>2018-02-19T12:32:00Z</time>
      </trkpt>
      <trkpt lat="43.92162" lon="5.1785">
        <ele>394.28</ele>
        <time>2018-02-19T12:32:16Z</time>
      </trkpt>
      <trkpt lat="43.92156" lon="5.17857">
        <ele>393.32</ele>
        <time>2018-02-19T12:32:29Z</time>
      </trkpt>
      <trkpt lat="43.9215" lon="5.17858">
        <ele>391.39</ele>
        <time>2018-02-19T12:32:42Z</time>
      </trkpt>
      <trkpt lat="43.9214" lon="5.1785">
        <ele>390.91</ele>
        <time>2018-02-19T12:32:57Z</time>
      </trkpt>
      <trkpt lat="43.92132" lon="5.1784">
        <ele>389.95</ele>
        <time>2018-02-19T12:33:12Z</time>
      </trkpt>
      <trkpt lat="43.92128" lon="5.1783">
        <ele>388.51</ele>
        <time>2018-02-19T12:33:26Z</time>
      </trkpt>
      <trkpt lat="43.92122" lon="5.17825">
        <ele>386.59</ele>
        <time>2018-02-19T12:33:42Z</time>
      </trkpt>
      <trkpt lat="43.9211" lon="5.17823">
        <ele>385.63</ele>
        <time>2018-02-19T12:33:59Z</time>
      </trkpt>
      <trkpt lat="43.92104" lon="5.17821">
        <ele>384.18</ele>
        <time>2018-02-19T12:34:11Z</time>
      </trkpt>
      <trkpt lat="43.92099" lon="5.17812">
        <ele>382.26</ele>
        <time>2018-02-19T12:34:26Z</time>
      </trkpt>
      <trkpt lat="43.92094" lon="5.17799">
        <ele>380.34</ele>
        <time>2018-02-19T12:34:41Z</time>
      </trkpt>
      <trkpt lat="43.92089" lon="5.17789">
        <ele>378.9</ele>
        <time>2018-02-19T12:34:54Z</time>
      </trkpt>
      <trkpt lat="43.92084" lon="5.17779">
        <ele>377.45</ele>
        <time>2018-02-19T12:35:10Z</time>
      </trkpt>
      <trkpt lat="43.92079" lon="5.17769">
        <ele>375.53</ele>
        <time>2018-02-19T12:35:24Z</time>
      </trkpt>
      <trkpt lat="43.92073" lon="5.17764">
        <ele>373.61</ele>
        <time>2018-02-19T12:35:40Z</time>
      </trkpt>
      <trkpt lat="43.92066" lon="5.17757">
        <ele>372.17</ele>
        <time>2018-02-19T12:35:56Z</time>
      </trkpt>
      <trkpt lat="43.9206" lon="5.17749">
        <ele>370.24</ele>
        <time>2018-02-19T12:36:12Z</time>
      </trkpt>
      <trkpt lat="43.92052" lon="5.1774">
        <ele>368.32</ele>
        <time>2018-02-19T12:36:27Z</time>
      </trkpt>
      <trkpt lat="43.92048" lon="5.17735">
        <ele>366.4</ele>
        <time>2018-02-19T12:36:41Z</time>
      </trkpt>
      <trkpt lat="43.92044" lon="5.17729">
        <ele>365.44</ele>
        <time>2018-02-19T12:36:54Z</time>
      </trkpt>
      <trkpt lat="43.92034" lon="5.17719">
        <ele>363.52</ele>
        <time>2018-02-19T12:37:10Z</time>
      </trkpt>
      <trkpt lat="43.9203" lon="5.1771">
        <ele>361.59</ele>
        <time>2018-02-19T12:37:26Z</time>
      </trkpt>
      <trkpt lat="43.92028" lon="5.17708">
        <ele>360.63</ele>
        <time>2018-02-19T12:37:42Z</time>
      </trkpt>
      <trkpt lat="43.92027" lon="5.17704">
        <ele>359.67</ele>
        <time>2018-02-19T12:37:58Z</time>
      </trkpt>
      <trkpt lat="43.92032" lon="5.17706">
        <ele>358.23</ele>
        <time>2018-02-19T12:38:11Z</time>
      </trkpt>
      <trkpt lat="43.92037" lon="5.17703">
        <ele>356.31</ele>
        <time>2018-02-19T12:38:26Z</time>
      </trkpt>
      <trkpt lat="43.9204" lon="5.17699">
        <ele>354.86</ele>
        <time>2018-02-19T12:38:39Z</time>
      </trkpt>
      <trkpt lat="43.92032" lon="5.17697">
        <ele>353.9</ele>
        <time>2018-02-19T12:38:54Z</time>
      </trkpt>
      <trkpt lat="43.92023" lon="5.1769">
        <ele>352.46</ele>
        <time>2018-02-19T12:39:10Z</time>
      </trkpt>
      <trkpt lat="43.92013" lon="5.17687">
        <ele>351.98</ele>
        <time>2018-02-19T12:39:25Z</time>
      </trkpt>
      <trkpt lat="43.92009" lon="5.17683">
        <ele>350.06</ele>
        <time>2018-02-19T12:39:40Z</time>
      </trkpt>
      <trkpt lat="43.92003" lon="5.17676">
        <ele>349.1</ele>
        <time>2018-02-19T12:39:56Z</time>
      </trkpt>
      <trkpt lat="43.91998" lon="5.17668">
        <ele>346.69</ele>
        <time>2018-02-19T12:40:10Z</time>
      </trkpt>
      <trkpt lat="43.91994" lon="5.1766">
        <ele>344.77</ele>
        <time>2018-02-19T12:40:24Z</time>
      </trkpt>
      <trkpt lat="43.91993" lon="5.17658">
        <ele>344.77</ele>
        <time>2018-02-19T12:40:47Z</time>
      </trkpt>
      <trkpt lat="43.9199" lon="5.17655">
        <ele>342.85</ele>
        <time>2018-02-19T12:41:02Z</time>
      </trkpt>
      <trkpt lat="43.91985" lon="5.1765">
        <ele>340.44</ele>
        <time>2018-02-19T12:41:18Z</time>
      </trkpt>
      <trkpt lat="43.9198" lon="5.17639">
        <ele>337.56</ele>
        <time>2018-02-19T12:41:36Z</time>
      </trkpt>
      <trkpt lat="43.91977" lon="5.17633">
        <ele>335.16</ele>
        <time>2018-02-19T12:41:51Z</time>
      </trkpt>
      <trkpt lat="43.91975" lon="5.17627">
        <ele>333.23</ele>
        <time>2018-02-19T12:42:03Z</time>
      </trkpt>
      <trkpt lat="43.91974" lon="5.17618">
        <ele>330.83</ele>
        <time>2018-02-19T12:42:18Z</time>
      </trkpt>
      <trkpt lat="43.91978" lon="5.17604">
        <ele>328.43</ele>
        <time>2018-02-19T12:42:35Z</time>
      </trkpt>
      <trkpt lat="43.91974" lon="5.17593">
        <ele>325.06</ele>
        <time>2018-02-19T12:42:49Z</time>
      </trkpt>
      <trkpt lat="43.91972" lon="5.17583">
        <ele>323.14</ele>
        <time>2018-02-19T12:43:02Z</time>
      </trkpt>
      <trkpt lat="43.91969" lon="5.17577">
        <ele>321.7</ele>
        <time>2018-02-19T12:43:13Z</time>
      </trkpt>
      <trkpt lat="43.91968" lon="5.17569">
        <ele>319.3</ele>
        <time>2018-02-19T12:43:28Z</time>
      </trkpt>
      <trkpt lat="43.91968" lon="5.17557">
        <ele>316.89</ele>
        <time>2018-02-19T12:43:42Z</time>
      </trkpt>
      <trkpt lat="43.91965" lon="5.17544">
        <ele>314.97</ele>
        <time>2018-02-19T12:43:57Z</time>
      </trkpt>
      <trkpt lat="43.91959" lon="5.17535">
        <ele>312.57</ele>
        <time>2018-02-19T12:44:13Z</time>
      </trkpt>
      <trkpt lat="43.91954" lon="5.17526">
        <ele>310.64</ele>
        <time>2018-02-19T12:44:29Z</time>
      </trkpt>
      <trkpt lat="43.9195" lon="5.17519">
        <ele>308.24</ele>
        <time>2018-02-19T12:44:44Z</time>
      </trkpt>
      <trkpt lat="43.91942" lon="5.17513">
        <ele>305.84</ele>
        <time>2018-02-19T12:44:58Z</time>
      </trkpt>
      <trkpt lat="43.91935" lon="5.17501">
        <ele>303.43</ele>
        <time>2018-02-19T12:45:13Z</time>
      </trkpt>
      <trkpt lat="43.91928" lon="5.17489">
        <ele>301.03</ele>
        <time>2018-02-19T12:45:32Z</time>
      </trkpt>
      <trkpt lat="43.91926" lon="5.17479">
        <ele>300.55</ele>
        <time>2018-02-19T12:45:46Z</time>
      </trkpt>
      <trkpt lat="43.91922" lon="5.17476">
        <ele>300.07</ele>
        <time>2018-02-19T12:46:11Z</time>
      </trkpt>
      <trkpt lat="43.91922" lon="5.17478">
        <ele>300.07</ele>
        <time>2018-02-19T12:46:15Z</time>
      </trkpt>
      <trkpt lat="43.91924" lon="5.17481">
        <ele>299.59</ele>
        <time>2018-02-19T12:46:27Z</time>
      </trkpt>
      <trkpt lat="43.91924" lon="5.17484">
        <ele>299.59</ele>
        <time>2018-02-19T12:46:49Z</time>
      </trkpt>
      <trkpt lat="43.9192" lon="5.17484">
        <ele>300.55</ele>
        <time>2018-02-19T12:47:05Z</time>
      </trkpt>
      <trkpt lat="43.91913" lon="5.17481">
        <ele>300.07</ele>
        <time>2018-02-19T12:47:23Z</time>
      </trkpt>
      <trkpt lat="43.91899" lon="5.17478">
        <ele>298.63</ele>
        <time>2018-02-19T12:47:41Z</time>
      </trkpt>
      <trkpt lat="43.91896" lon="5.17478">
        <ele>298.15</ele>
        <time>2018-02-19T12:47:45Z</time>
      </trkpt>
      <trkpt lat="43.91878" lon="5.17477">
        <ele>297.18</ele>
        <time>2018-02-19T12:48:03Z</time>
      </trkpt>
      <trkpt lat="43.91861" lon="5.17475">
        <ele>296.22</ele>
        <time>2018-02-19T12:48:19Z</time>
      </trkpt>
      <trkpt lat="43.91843" lon="5.17472">
        <ele>295.26</ele>
        <time>2018-02-19T12:48:36Z</time>
      </trkpt>
      <trkpt lat="43.91821" lon="5.1748">
        <ele>294.78</ele>
        <time>2018-02-19T12:48:53Z</time>
      </trkpt>
      <trkpt lat="43.91821" lon="5.17481">
        <ele>294.78</ele>
        <time>2018-02-19T12:49:11Z</time>
      </trkpt>
      <trkpt lat="43.91818" lon="5.17489">
        <ele>294.3</ele>
        <time>2018-02-19T12:49:27Z</time>
      </trkpt>
      <trkpt lat="43.91809" lon="5.17502">
        <ele>293.82</ele>
        <time>2018-02-19T12:49:43Z</time>
      </trkpt>
      <trkpt lat="43.91803" lon="5.17506">
        <ele>293.34</ele>
        <time>2018-02-19T12:49:49Z</time>
      </trkpt>
      <trkpt lat="43.91791" lon="5.17518">
        <ele>292.86</ele>
        <time>2018-02-19T12:50:07Z</time>
      </trkpt>
      <trkpt lat="43.91782" lon="5.1753">
        <ele>290.46</ele>
        <time>2018-02-19T12:50:21Z</time>
      </trkpt>
      <trkpt lat="43.9178" lon="5.17546">
        <ele>289.49</ele>
        <time>2018-02-19T12:50:37Z</time>
      </trkpt>
      <trkpt lat="43.9178" lon="5.17567">
        <ele>288.05</ele>
        <time>2018-02-19T12:50:54Z</time>
      </trkpt>
      <trkpt lat="43.91785" lon="5.17584">
        <ele>286.61</ele>
        <time>2018-02-19T12:51:09Z</time>
      </trkpt>
      <trkpt lat="43.91784" lon="5.17601">
        <ele>285.65</ele>
        <time>2018-02-19T12:51:21Z</time>
      </trkpt>
      <trkpt lat="43.91768" lon="5.17618">
        <ele>284.21</ele>
        <time>2018-02-19T12:51:34Z</time>
      </trkpt>
      <trkpt lat="43.91747" lon="5.17627">
        <ele>282.77</ele>
        <time>2018-02-19T12:51:53Z</time>
      </trkpt>
      <trkpt lat="43.91744" lon="5.17627">
        <ele>282.77</ele>
        <time>2018-02-19T12:51:55Z</time>
      </trkpt>
      <trkpt lat="43.91729" lon="5.17616">
        <ele>282.28</ele>
        <time>2018-02-19T12:52:05Z</time>
      </trkpt>
      <trkpt lat="43.91715" lon="5.17623">
        <ele>281.8</ele>
        <time>2018-02-19T12:52:22Z</time>
      </trkpt>
      <trkpt lat="43.91698" lon="5.17631">
        <ele>280.36</ele>
        <time>2018-02-19T12:52:39Z</time>
      </trkpt>
      <trkpt lat="43.91681" lon="5.17636">
        <ele>279.4</ele>
        <time>2018-02-19T12:52:57Z</time>
      </trkpt>
      <trkpt lat="43.9168" lon="5.17637">
        <ele>279.4</ele>
        <time>2018-02-19T12:52:58Z</time>
      </trkpt>
      <trkpt lat="43.91666" lon="5.17644">
        <ele>278.44</ele>
        <time>2018-02-19T12:53:13Z</time>
      </trkpt>
      <trkpt lat="43.9165" lon="5.17653">
        <ele>277</ele>
        <time>2018-02-19T12:53:30Z</time>
      </trkpt>
      <trkpt lat="43.91634" lon="5.17651">
        <ele>276.04</ele>
        <time>2018-02-19T12:53:46Z</time>
      </trkpt>
      <trkpt lat="43.91616" lon="5.17647">
        <ele>275.07</ele>
        <time>2018-02-19T12:54:05Z</time>
      </trkpt>
      <trkpt lat="43.91614" lon="5.17646">
        <ele>275.07</ele>
        <time>2018-02-19T12:54:07Z</time>
      </trkpt>
      <trkpt lat="43.91596" lon="5.17643">
        <ele>274.11</ele>
        <time>2018-02-19T12:54:23Z</time>
      </trkpt>
      <trkpt lat="43.91577" lon="5.17642">
        <ele>273.15</ele>
        <time>2018-02-19T12:54:40Z</time>
      </trkpt>
      <trkpt lat="43.91557" lon="5.17642">
        <ele>273.15</ele>
        <time>2018-02-19T12:54:57Z</time>
      </trkpt>
      <trkpt lat="43.91549" lon="5.17644">
        <ele>272.67</ele>
        <time>2018-02-19T12:55:04Z</time>
      </trkpt>
      <trkpt lat="43.91533" lon="5.17646">
        <ele>271.71</ele>
        <time>2018-02-19T12:55:20Z</time>
      </trkpt>
      <trkpt lat="43.91518" lon="5.17652">
        <ele>270.75</ele>
        <time>2018-02-19T12:55:34Z</time>
      </trkpt>
      <trkpt lat="43.91501" lon="5.17664">
        <ele>269.79</ele>
        <time>2018-02-19T12:55:50Z</time>
      </trkpt>
      <trkpt lat="43.91491" lon="5.17672">
        <ele>269.31</ele>
        <time>2018-02-19T12:56:05Z</time>
      </trkpt>
      <trkpt lat="43.91482" lon="5.1768">
        <ele>267.38</ele>
        <time>2018-02-19T12:56:20Z</time>
      </trkpt>
      <trkpt lat="43.91475" lon="5.17683">
        <ele>264.98</ele>
        <time>2018-02-19T12:56:36Z</time>
      </trkpt>
      <trkpt lat="43.91477" lon="5.17688">
        <ele>264.5</ele>
        <time>2018-02-19T12:56:53Z</time>
      </trkpt>
      <trkpt lat="43.91469" lon="5.17696">
        <ele>265.94</ele>
        <time>2018-02-19T12:57:07Z</time>
      </trkpt>
      <trkpt lat="43.91462" lon="5.17704">
        <ele>268.83</ele>
        <time>2018-02-19T12:57:25Z</time>
      </trkpt>
      <trkpt lat="43.91461" lon="5.17705">
        <ele>268.35</ele>
        <time>2018-02-19T12:57:46Z</time>
      </trkpt>
      <trkpt lat="43.91462" lon="5.17705">
        <ele>268.35</ele>
        <time>2018-02-19T12:58:03Z</time>
      </trkpt>
      <trkpt lat="43.91467" lon="5.17703">
        <ele>268.35</ele>
        <time>2018-02-19T12:58:32Z</time>
      </trkpt>
      <trkpt lat="43.9147" lon="5.17699">
        <ele>268.35</ele>
        <time>2018-02-19T12:58:55Z</time>
      </trkpt>
      <trkpt lat="43.91467" lon="5.17699">
        <ele>267.38</ele>
        <time>2018-02-19T12:59:10Z</time>
      </trkpt>
      <trkpt lat="43.91466" lon="5.177">
        <ele>268.35</ele>
        <time>2018-02-19T12:59:28Z</time>
      </trkpt>
      <trkpt lat="43.91463" lon="5.17701">
        <ele>267.86</ele>
        <time>2018-02-19T12:59:44Z</time>
      </trkpt>
      <trkpt lat="43.91461" lon="5.17702">
        <ele>267.86</ele>
        <time>2018-02-19T12:59:59Z</time>
      </trkpt>
      <trkpt lat="43.91466" lon="5.177">
        <ele>268.83</ele>
        <time>2018-02-19T13:00:21Z</time>
      </trkpt>
      <trkpt lat="43.91474" lon="5.17703">
        <ele>268.35</ele>
        <time>2018-02-19T13:00:35Z</time>
      </trkpt>
      <trkpt lat="43.91488" lon="5.17715">
        <ele>269.31</ele>
        <time>2018-02-19T13:00:52Z</time>
      </trkpt>
      <trkpt lat="43.91488" lon="5.17715">
        <ele>269.31</ele>
        <time>2018-02-19T13:00:53Z</time>
      </trkpt>
      <trkpt lat="43.915" lon="5.17728">
        <ele>270.27</ele>
        <time>2018-02-19T13:01:10Z</time>
      </trkpt>
      <trkpt lat="43.91511" lon="5.17738">
        <ele>270.75</ele>
        <time>2018-02-19T13:01:26Z</time>
      </trkpt>
      <trkpt lat="43.91519" lon="5.17759">
        <ele>271.71</ele>
        <time>2018-02-19T13:01:41Z</time>
      </trkpt>
      <trkpt lat="43.9153" lon="5.17772">
        <ele>271.71</ele>
        <time>2018-02-19T13:01:57Z</time>
      </trkpt>
      <trkpt lat="43.91544" lon="5.17785">
        <ele>272.67</ele>
        <time>2018-02-19T13:02:13Z</time>
      </trkpt>
      <trkpt lat="43.91547" lon="5.1779">
        <ele>272.67</ele>
        <time>2018-02-19T13:02:18Z</time>
      </trkpt>
      <trkpt lat="43.91562" lon="5.17805">
        <ele>273.15</ele>
        <time>2018-02-19T13:02:35Z</time>
      </trkpt>
      <trkpt lat="43.91564" lon="5.17805">
        <ele>273.15</ele>
        <time>2018-02-19T13:02:36Z</time>
      </trkpt>
      <trkpt lat="43.91579" lon="5.17818">
        <ele>273.15</ele>
        <time>2018-02-19T13:02:53Z</time>
      </trkpt>
      <trkpt lat="43.91593" lon="5.17833">
        <ele>274.11</ele>
        <time>2018-02-19T13:03:09Z</time>
      </trkpt>
      <trkpt lat="43.91594" lon="5.17845">
        <ele>276.04</ele>
        <time>2018-02-19T13:03:21Z</time>
      </trkpt>
      <trkpt lat="43.91599" lon="5.17868">
        <ele>276.52</ele>
        <time>2018-02-19T13:03:40Z</time>
      </trkpt>
      <trkpt lat="43.91601" lon="5.17881">
        <ele>277.96</ele>
        <time>2018-02-19T13:03:53Z</time>
      </trkpt>
      <trkpt lat="43.9161" lon="5.17895">
        <ele>277.96</ele>
        <time>2018-02-19T13:04:08Z</time>
      </trkpt>
      <trkpt lat="43.91616" lon="5.17912">
        <ele>276.52</ele>
        <time>2018-02-19T13:04:24Z</time>
      </trkpt>
      <trkpt lat="43.91622" lon="5.17932">
        <ele>276.04</ele>
        <time>2018-02-19T13:04:39Z</time>
      </trkpt>
      <trkpt lat="43.91625" lon="5.17949">
        <ele>277.96</ele>
        <time>2018-02-19T13:04:55Z</time>
      </trkpt>
      <trkpt lat="43.91632" lon="5.17964">
        <ele>278.92</ele>
        <time>2018-02-19T13:05:13Z</time>
      </trkpt>
      <trkpt lat="43.91638" lon="5.17978">
        <ele>278.92</ele>
        <time>2018-02-19T13:05:29Z</time>
      </trkpt>
      <trkpt lat="43.91634" lon="5.17984">
        <ele>279.4</ele>
        <time>2018-02-19T13:05:44Z</time>
      </trkpt>
      <trkpt lat="43.91634" lon="5.17999">
        <ele>280.84</ele>
        <time>2018-02-19T13:06:00Z</time>
      </trkpt>
      <trkpt lat="43.91638" lon="5.18001">
        <ele>279.88</ele>
        <time>2018-02-19T13:06:15Z</time>
      </trkpt>
      <trkpt lat="43.91646" lon="5.17999">
        <ele>279.4</ele>
        <time>2018-02-19T13:06:42Z</time>
      </trkpt>
      <trkpt lat="43.91648" lon="5.18011">
        <ele>279.4</ele>
        <time>2018-02-19T13:06:57Z</time>
      </trkpt>
      <trkpt lat="43.91654" lon="5.18025">
        <ele>281.32</ele>
        <time>2018-02-19T13:07:15Z</time>
      </trkpt>
      <trkpt lat="43.91663" lon="5.18039">
        <ele>280.36</ele>
        <time>2018-02-19T13:07:31Z</time>
      </trkpt>
      <trkpt lat="43.9167" lon="5.18043">
        <ele>278.92</ele>
        <time>2018-02-19T13:07:45Z</time>
      </trkpt>
      <trkpt lat="43.91678" lon="5.18045">
        <ele>277.48</ele>
        <time>2018-02-19T13:08:00Z</time>
      </trkpt>
      <trkpt lat="43.91679" lon="5.1805">
        <ele>277</ele>
        <time>2018-02-19T13:08:18Z</time>
      </trkpt>
      <trkpt lat="43.91685" lon="5.18057">
        <ele>277</ele>
        <time>2018-02-19T13:08:31Z</time>
      </trkpt>
      <trkpt lat="43.9168" lon="5.18062">
        <ele>277</ele>
        <time>2018-02-19T13:08:42Z</time>
      </trkpt>
      <trkpt lat="43.91681" lon="5.18064">
        <ele>277.96</ele>
        <time>2018-02-19T13:09:02Z</time>
      </trkpt>
      <trkpt lat="43.91686" lon="5.18064">
        <ele>277.96</ele>
        <time>2018-02-19T13:09:26Z</time>
      </trkpt>
      <trkpt lat="43.91686" lon="5.18065">
        <ele>277.96</ele>
        <time>2018-02-19T13:09:53Z</time>
      </trkpt>
      <trkpt lat="43.91688" lon="5.18061">
        <ele>278.44</ele>
        <time>2018-02-19T13:10:23Z</time>
      </trkpt>
      <trkpt lat="43.91688" lon="5.18069">
        <ele>279.88</ele>
        <time>2018-02-19T13:10:45Z</time>
      </trkpt>
      <trkpt lat="43.91687" lon="5.18081">
        <ele>281.32</ele>
        <time>2018-02-19T13:11:01Z</time>
      </trkpt>
      <trkpt lat="43.91692" lon="5.18092">
        <ele>281.32</ele>
        <time>2018-02-19T13:11:16Z</time>
      </trkpt>
      <trkpt lat="43.917" lon="5.18105">
        <ele>280.84</ele>
        <time>2018-02-19T13:11:33Z</time>
      </trkpt>
      <trkpt lat="43.91703" lon="5.18118">
        <ele>282.77</ele>
        <time>2018-02-19T13:11:48Z</time>
      </trkpt>
      <trkpt lat="43.91708" lon="5.18131">
        <ele>282.77</ele>
        <time>2018-02-19T13:12:02Z</time>
      </trkpt>
      <trkpt lat="43.91709" lon="5.18137">
        <ele>281.32</ele>
        <time>2018-02-19T13:12:08Z</time>
      </trkpt>
      <trkpt lat="43.91712" lon="5.18146">
        <ele>282.28</ele>
        <time>2018-02-19T13:12:15Z</time>
      </trkpt>
      <trkpt lat="43.91719" lon="5.18158">
        <ele>284.69</ele>
        <time>2018-02-19T13:12:29Z</time>
      </trkpt>
      <trkpt lat="43.91721" lon="5.1817">
        <ele>286.61</ele>
        <time>2018-02-19T13:12:42Z</time>
      </trkpt>
      <trkpt lat="43.91726" lon="5.18179">
        <ele>288.53</ele>
        <time>2018-02-19T13:12:58Z</time>
      </trkpt>
      <trkpt lat="43.91732" lon="5.18192">
        <ele>288.53</ele>
        <time>2018-02-19T13:13:12Z</time>
      </trkpt>
      <trkpt lat="43.91744" lon="5.18198">
        <ele>288.53</ele>
        <time>2018-02-19T13:13:28Z</time>
      </trkpt>
      <trkpt lat="43.9176" lon="5.18201">
        <ele>288.05</ele>
        <time>2018-02-19T13:13:43Z</time>
      </trkpt>
      <trkpt lat="43.91774" lon="5.18201">
        <ele>288.05</ele>
        <time>2018-02-19T13:14:00Z</time>
      </trkpt>
      <trkpt lat="43.91787" lon="5.182">
        <ele>288.05</ele>
        <time>2018-02-19T13:14:17Z</time>
      </trkpt>
      <trkpt lat="43.918" lon="5.182">
        <ele>288.05</ele>
        <time>2018-02-19T13:14:32Z</time>
      </trkpt>
      <trkpt lat="43.91814" lon="5.18202">
        <ele>288.05</ele>
        <time>2018-02-19T13:14:48Z</time>
      </trkpt>
      <trkpt lat="43.91825" lon="5.18192">
        <ele>289.97</ele>
        <time>2018-02-19T13:15:04Z</time>
      </trkpt>
      <trkpt lat="43.91837" lon="5.18187">
        <ele>290.94</ele>
        <time>2018-02-19T13:15:21Z</time>
      </trkpt>
      <trkpt lat="43.9185" lon="5.18178">
        <ele>293.34</ele>
        <time>2018-02-19T13:15:37Z</time>
      </trkpt>
      <trkpt lat="43.91865" lon="5.18174">
        <ele>293.82</ele>
        <time>2018-02-19T13:15:53Z</time>
      </trkpt>
      <trkpt lat="43.91877" lon="5.18166">
        <ele>295.26</ele>
        <time>2018-02-19T13:16:10Z</time>
      </trkpt>
      <trkpt lat="43.91887" lon="5.18165">
        <ele>295.74</ele>
        <time>2018-02-19T13:16:24Z</time>
      </trkpt>
      <trkpt lat="43.91894" lon="5.18164">
        <ele>295.74</ele>
        <time>2018-02-19T13:16:41Z</time>
      </trkpt>
      <trkpt lat="43.91898" lon="5.18166">
        <ele>295.74</ele>
        <time>2018-02-19T13:17:07Z</time>
      </trkpt>
      <trkpt lat="43.91892" lon="5.18167">
        <ele>295.74</ele>
        <time>2018-02-19T13:17:28Z</time>
      </trkpt>
      <trkpt lat="43.91893" lon="5.18166">
        <ele>295.26</ele>
        <time>2018-02-19T13:17:56Z</time>
      </trkpt>
      <trkpt lat="43.91897" lon="5.18168">
        <ele>295.26</ele>
        <time>2018-02-19T13:18:14Z</time>
      </trkpt>
      <trkpt lat="43.91907" lon="5.18167">
        <ele>296.7</ele>
        <time>2018-02-19T13:18:27Z</time>
      </trkpt>
      <trkpt lat="43.91915" lon="5.18159">
        <ele>300.07</ele>
        <time>2018-02-19T13:18:44Z</time>
      </trkpt>
      <trkpt lat="43.91927" lon="5.1816">
        <ele>300.07</ele>
        <time>2018-02-19T13:19:01Z</time>
      </trkpt>
      <trkpt lat="43.9194" lon="5.18157">
        <ele>300.55</ele>
        <time>2018-02-19T13:19:15Z</time>
      </trkpt>
      <trkpt lat="43.91954" lon="5.18148">
        <ele>302.95</ele>
        <time>2018-02-19T13:19:34Z</time>
      </trkpt>
      <trkpt lat="43.91965" lon="5.18145">
        <ele>304.39</ele>
        <time>2018-02-19T13:19:51Z</time>
      </trkpt>
      <trkpt lat="43.9197" lon="5.18145">
        <ele>305.84</ele>
        <time>2018-02-19T13:20:06Z</time>
      </trkpt>
      <trkpt lat="43.91978" lon="5.18146">
        <ele>307.76</ele>
        <time>2018-02-19T13:20:24Z</time>
      </trkpt>
      <trkpt lat="43.91982" lon="5.1815">
        <ele>308.72</ele>
        <time>2018-02-19T13:20:44Z</time>
      </trkpt>
      <trkpt lat="43.9199" lon="5.18144">
        <ele>310.64</ele>
        <time>2018-02-19T13:20:59Z</time>
      </trkpt>
      <trkpt lat="43.91998" lon="5.18147">
        <ele>311.6</ele>
        <time>2018-02-19T13:21:14Z</time>
      </trkpt>
      <trkpt lat="43.91999" lon="5.18149">
        <ele>306.32</ele>
        <time>2018-02-19T13:21:27Z</time>
      </trkpt>
      <trkpt lat="43.91999" lon="5.18149">
        <ele>316.41</ele>
        <time>2018-02-19T13:21:28Z</time>
      </trkpt>
      <trkpt lat="43.91999" lon="5.18149">
        <ele>311.12</ele>
        <time>2018-02-19T13:21:29Z</time>
      </trkpt>
      <trkpt lat="43.91995" lon="5.18153">
        <ele>310.64</ele>
        <time>2018-02-19T13:21:54Z</time>
      </trkpt>
      <trkpt lat="43.92002" lon="5.1815">
        <ele>310.64</ele>
        <time>2018-02-19T13:22:09Z</time>
      </trkpt>
      <trkpt lat="43.92005" lon="5.18149">
        <ele>310.64</ele>
        <time>2018-02-19T13:22:23Z</time>
      </trkpt>
      <trkpt lat="43.92008" lon="5.1815">
        <ele>310.64</ele>
        <time>2018-02-19T13:22:37Z</time>
      </trkpt>
      <trkpt lat="43.92015" lon="5.18155">
        <ele>310.16</ele>
        <time>2018-02-19T13:22:53Z</time>
      </trkpt>
      <trkpt lat="43.92019" lon="5.1816">
        <ele>311.6</ele>
        <time>2018-02-19T13:22:59Z</time>
      </trkpt>
      <trkpt lat="43.9203" lon="5.18173">
        <ele>312.57</ele>
        <time>2018-02-19T13:23:16Z</time>
      </trkpt>
      <trkpt lat="43.92036" lon="5.18187">
        <ele>313.53</ele>
        <time>2018-02-19T13:23:33Z</time>
      </trkpt>
      <trkpt lat="43.92041" lon="5.18199">
        <ele>313.53</ele>
        <time>2018-02-19T13:23:48Z</time>
      </trkpt>
      <trkpt lat="43.92037" lon="5.18203">
        <ele>312.09</ele>
        <time>2018-02-19T13:24:02Z</time>
      </trkpt>
      <trkpt lat="43.92034" lon="5.1821">
        <ele>310.16</ele>
        <time>2018-02-19T13:24:19Z</time>
      </trkpt>
      <trkpt lat="43.92033" lon="5.18209">
        <ele>310.16</ele>
        <time>2018-02-19T13:24:45Z</time>
      </trkpt>
      <trkpt lat="43.92032" lon="5.18211">
        <ele>310.16</ele>
        <time>2018-02-19T13:25:11Z</time>
      </trkpt>
      <trkpt lat="43.92029" lon="5.18213">
        <ele>309.68</ele>
        <time>2018-02-19T13:25:33Z</time>
      </trkpt>
      <trkpt lat="43.9203" lon="5.18213">
        <ele>310.16</ele>
        <time>2018-02-19T13:25:58Z</time>
      </trkpt>
      <trkpt lat="43.92034" lon="5.18213">
        <ele>310.16</ele>
        <time>2018-02-19T13:26:22Z</time>
      </trkpt>
      <trkpt lat="43.92035" lon="5.18213">
        <ele>310.16</ele>
        <time>2018-02-19T13:26:45Z</time>
      </trkpt>
      <trkpt lat="43.92033" lon="5.18219">
        <ele>310.16</ele>
        <time>2018-02-19T13:27:09Z</time>
      </trkpt>
      <trkpt lat="43.92031" lon="5.18211">
        <ele>310.16</ele>
        <time>2018-02-19T13:27:30Z</time>
      </trkpt>
      <trkpt lat="43.92028" lon="5.18212">
        <ele>309.68</ele>
        <time>2018-02-19T13:27:47Z</time>
      </trkpt>
      <trkpt lat="43.92021" lon="5.18213">
        <ele>307.76</ele>
        <time>2018-02-19T13:28:03Z</time>
      </trkpt>
      <trkpt lat="43.92012" lon="5.1821">
        <ele>304.39</ele>
        <time>2018-02-19T13:28:18Z</time>
      </trkpt>
      <trkpt lat="43.92006" lon="5.18209">
        <ele>302.95</ele>
        <time>2018-02-19T13:28:33Z</time>
      </trkpt>
      <trkpt lat="43.92" lon="5.18206">
        <ele>301.99</ele>
        <time>2018-02-19T13:28:50Z</time>
      </trkpt>
      <trkpt lat="43.91999" lon="5.18207">
        <ele>302.95</ele>
        <time>2018-02-19T13:29:02Z</time>
      </trkpt>
      <trkpt lat="43.92001" lon="5.182">
        <ele>303.91</ele>
        <time>2018-02-19T13:29:15Z</time>
      </trkpt>
      <trkpt lat="43.91994" lon="5.18198">
        <ele>305.36</ele>
        <time>2018-02-19T13:29:29Z</time>
      </trkpt>
      <trkpt lat="43.91992" lon="5.18196">
        <ele>306.32</ele>
        <time>2018-02-19T13:29:46Z</time>
      </trkpt>
      <trkpt lat="43.91986" lon="5.18192">
        <ele>307.76</ele>
        <time>2018-02-19T13:30:01Z</time>
      </trkpt>
      <trkpt lat="43.91984" lon="5.1819">
        <ele>308.72</ele>
        <time>2018-02-19T13:30:18Z</time>
      </trkpt>
      <trkpt lat="43.91985" lon="5.18197">
        <ele>310.64</ele>
        <time>2018-02-19T13:30:32Z</time>
      </trkpt>
      <trkpt lat="43.91986" lon="5.18204">
        <ele>312.09</ele>
        <time>2018-02-19T13:30:46Z</time>
      </trkpt>
      <trkpt lat="43.91986" lon="5.1821">
        <ele>313.53</ele>
        <time>2018-02-19T13:31:05Z</time>
      </trkpt>
      <trkpt lat="43.91985" lon="5.18213">
        <ele>314.49</ele>
        <time>2018-02-19T13:31:22Z</time>
      </trkpt>
      <trkpt lat="43.91983" lon="5.18212">
        <ele>315.93</ele>
        <time>2018-02-19T13:31:39Z</time>
      </trkpt>
      <trkpt lat="43.91983" lon="5.18214">
        <ele>315.93</ele>
        <time>2018-02-19T13:31:57Z</time>
      </trkpt>
      <trkpt lat="43.91984" lon="5.18215">
        <ele>316.41</ele>
        <time>2018-02-19T13:32:19Z</time>
      </trkpt>
      <trkpt lat="43.91982" lon="5.18215">
        <ele>316.41</ele>
        <time>2018-02-19T13:32:46Z</time>
      </trkpt>
      <trkpt lat="43.91982" lon="5.18218">
        <ele>316.89</ele>
        <time>2018-02-19T13:33:10Z</time>
      </trkpt>
      <trkpt lat="43.91983" lon="5.18216">
        <ele>316.41</ele>
        <time>2018-02-19T13:33:36Z</time>
      </trkpt>
      <trkpt lat="43.91982" lon="5.18216">
        <ele>317.85</ele>
        <time>2018-02-19T13:33:55Z</time>
      </trkpt>
      <trkpt lat="43.9198" lon="5.18215">
        <ele>319.3</ele>
        <time>2018-02-19T13:34:11Z</time>
      </trkpt>
      <trkpt lat="43.91972" lon="5.18216">
        <ele>319.78</ele>
        <time>2018-02-19T13:34:24Z</time>
      </trkpt>
      <trkpt lat="43.9197" lon="5.1822">
        <ele>319.78</ele>
        <time>2018-02-19T13:34:40Z</time>
      </trkpt>
      <trkpt lat="43.91974" lon="5.18217">
        <ele>320.26</ele>
        <time>2018-02-19T13:35:03Z</time>
      </trkpt>
      <trkpt lat="43.91973" lon="5.18215">
        <ele>320.74</ele>
        <time>2018-02-19T13:35:23Z</time>
      </trkpt>
      <trkpt lat="43.91962" lon="5.18221">
        <ele>320.74</ele>
        <time>2018-02-19T13:35:38Z</time>
      </trkpt>
      <trkpt lat="43.91948" lon="5.18225">
        <ele>321.22</ele>
        <time>2018-02-19T13:35:54Z</time>
      </trkpt>
      <trkpt lat="43.91934" lon="5.18225">
        <ele>320.26</ele>
        <time>2018-02-19T13:36:12Z</time>
      </trkpt>
      <trkpt lat="43.91933" lon="5.18225">
        <ele>320.26</ele>
        <time>2018-02-19T13:36:13Z</time>
      </trkpt>
      <trkpt lat="43.9192" lon="5.18225">
        <ele>318.81</ele>
        <time>2018-02-19T13:36:29Z</time>
      </trkpt>
      <trkpt lat="43.9191" lon="5.18229">
        <ele>319.78</ele>
        <time>2018-02-19T13:36:44Z</time>
      </trkpt>
      <trkpt lat="43.91904" lon="5.18237">
        <ele>322.66</ele>
        <time>2018-02-19T13:37:00Z</time>
      </trkpt>
      <trkpt lat="43.91901" lon="5.18245">
        <ele>323.62</ele>
        <time>2018-02-19T13:37:17Z</time>
      </trkpt>
      <trkpt lat="43.91899" lon="5.18249">
        <ele>324.1</ele>
        <time>2018-02-19T13:37:34Z</time>
      </trkpt>
      <trkpt lat="43.91897" lon="5.1825">
        <ele>324.1</ele>
        <time>2018-02-19T13:37:52Z</time>
      </trkpt>
      <trkpt lat="43.91899" lon="5.1825">
        <ele>324.58</ele>
        <time>2018-02-19T13:38:14Z</time>
      </trkpt>
      <trkpt lat="43.91897" lon="5.18251">
        <ele>326.02</ele>
        <time>2018-02-19T13:38:27Z</time>
      </trkpt>
      <trkpt lat="43.91889" lon="5.18255">
        <ele>326.5</ele>
        <time>2018-02-19T13:38:42Z</time>
      </trkpt>
      <trkpt lat="43.91881" lon="5.18262">
        <ele>326.99</ele>
        <time>2018-02-19T13:39:00Z</time>
      </trkpt>
      <trkpt lat="43.91875" lon="5.18267">
        <ele>327.95</ele>
        <time>2018-02-19T13:39:14Z</time>
      </trkpt>
      <trkpt lat="43.91871" lon="5.18268">
        <ele>326.99</ele>
        <time>2018-02-19T13:39:21Z</time>
      </trkpt>
      <trkpt lat="43.91864" lon="5.18274">
        <ele>326.02</ele>
        <time>2018-02-19T13:39:38Z</time>
      </trkpt>
      <trkpt lat="43.91862" lon="5.18275">
        <ele>326.02</ele>
        <time>2018-02-19T13:39:59Z</time>
      </trkpt>
      <trkpt lat="43.91865" lon="5.18276">
        <ele>326.99</ele>
        <time>2018-02-19T13:40:18Z</time>
      </trkpt>
      <trkpt lat="43.91864" lon="5.18277">
        <ele>328.43</ele>
        <time>2018-02-19T13:40:25Z</time>
      </trkpt>
      <trkpt lat="43.91861" lon="5.1828">
        <ele>327.95</ele>
        <time>2018-02-19T13:40:41Z</time>
      </trkpt>
      <trkpt lat="43.91856" lon="5.18282">
        <ele>327.95</ele>
        <time>2018-02-19T13:40:56Z</time>
      </trkpt>
      <trkpt lat="43.91851" lon="5.18285">
        <ele>329.39</ele>
        <time>2018-02-19T13:41:11Z</time>
      </trkpt>
      <trkpt lat="43.91847" lon="5.18288">
        <ele>329.39</ele>
        <time>2018-02-19T13:41:24Z</time>
      </trkpt>
      <trkpt lat="43.91844" lon="5.18292">
        <ele>331.79</ele>
        <time>2018-02-19T13:41:38Z</time>
      </trkpt>
      <trkpt lat="43.91844" lon="5.18291">
        <ele>332.75</ele>
        <time>2018-02-19T13:41:51Z</time>
      </trkpt>
      <trkpt lat="43.91848" lon="5.18289">
        <ele>332.75</ele>
        <time>2018-02-19T13:42:15Z</time>
      </trkpt>
      <trkpt lat="43.91846" lon="5.18286">
        <ele>332.75</ele>
        <time>2018-02-19T13:42:40Z</time>
      </trkpt>
      <trkpt lat="43.91842" lon="5.18295">
        <ele>333.71</ele>
        <time>2018-02-19T13:42:56Z</time>
      </trkpt>
      <trkpt lat="43.91839" lon="5.18298">
        <ele>333.71</ele>
        <time>2018-02-19T13:43:16Z</time>
      </trkpt>
      <trkpt lat="43.91834" lon="5.18302">
        <ele>335.64</ele>
        <time>2018-02-19T13:43:31Z</time>
      </trkpt>
      <trkpt lat="43.91829" lon="5.18305">
        <ele>336.6</ele>
        <time>2018-02-19T13:43:47Z</time>
      </trkpt>
      <trkpt lat="43.91821" lon="5.18307">
        <ele>337.08</ele>
        <time>2018-02-19T13:44:02Z</time>
      </trkpt>
      <trkpt lat="43.91812" lon="5.18308">
        <ele>337.08</ele>
        <time>2018-02-19T13:44:17Z</time>
      </trkpt>
      <trkpt lat="43.91805" lon="5.18313">
        <ele>338.04</ele>
        <time>2018-02-19T13:44:33Z</time>
      </trkpt>
      <trkpt lat="43.91803" lon="5.18315">
        <ele>339.48</ele>
        <time>2018-02-19T13:44:48Z</time>
      </trkpt>
      <trkpt lat="43.91802" lon="5.18316">
        <ele>340.44</ele>
        <time>2018-02-19T13:45:03Z</time>
      </trkpt>
      <trkpt lat="43.91797" lon="5.18317">
        <ele>342.37</ele>
        <time>2018-02-19T13:45:20Z</time>
      </trkpt>
      <trkpt lat="43.91794" lon="5.18321">
        <ele>343.33</ele>
        <time>2018-02-19T13:45:34Z</time>
      </trkpt>
      <trkpt lat="43.91792" lon="5.18323">
        <ele>344.77</ele>
        <time>2018-02-19T13:45:47Z</time>
      </trkpt>
      <trkpt lat="43.91785" lon="5.18327">
        <ele>345.73</ele>
        <time>2018-02-19T13:45:59Z</time>
      </trkpt>
      <trkpt lat="43.91779" lon="5.1833">
        <ele>348.62</ele>
        <time>2018-02-19T13:46:14Z</time>
      </trkpt>
      <trkpt lat="43.91773" lon="5.18335">
        <ele>351.02</ele>
        <time>2018-02-19T13:46:30Z</time>
      </trkpt>
      <trkpt lat="43.91766" lon="5.18337">
        <ele>352.94</ele>
        <time>2018-02-19T13:46:45Z</time>
      </trkpt>
      <trkpt lat="43.91767" lon="5.18334">
        <ele>352.94</ele>
        <time>2018-02-19T13:47:08Z</time>
      </trkpt>
      <trkpt lat="43.91767" lon="5.1833">
        <ele>352.94</ele>
        <time>2018-02-19T13:47:29Z</time>
      </trkpt>
      <trkpt lat="43.91765" lon="5.18332">
        <ele>353.42</ele>
        <time>2018-02-19T13:47:53Z</time>
      </trkpt>
      <trkpt lat="43.91765" lon="5.18328">
        <ele>352.94</ele>
        <time>2018-02-19T13:48:05Z</time>
      </trkpt>
      <trkpt lat="43.91766" lon="5.1833">
        <ele>352.46</ele>
        <time>2018-02-19T13:48:34Z</time>
      </trkpt>
      <trkpt lat="43.91759" lon="5.18338">
        <ele>353.42</ele>
        <time>2018-02-19T13:48:50Z</time>
      </trkpt>
      <trkpt lat="43.9175" lon="5.18344">
        <ele>355.34</ele>
        <time>2018-02-19T13:49:05Z</time>
      </trkpt>
      <trkpt lat="43.91746" lon="5.18346">
        <ele>356.79</ele>
        <time>2018-02-19T13:49:20Z</time>
      </trkpt>
      <trkpt lat="43.91738" lon="5.18347">
        <ele>357.27</ele>
        <time>2018-02-19T13:49:35Z</time>
      </trkpt>
      <trkpt lat="43.91732" lon="5.18351">
        <ele>359.67</ele>
        <time>2018-02-19T13:49:48Z</time>
      </trkpt>
      <trkpt lat="43.91724" lon="5.18355">
        <ele>362.07</ele>
        <time>2018-02-19T13:50:04Z</time>
      </trkpt>
      <trkpt lat="43.91713" lon="5.18355">
        <ele>364</ele>
        <time>2018-02-19T13:50:18Z</time>
      </trkpt>
      <trkpt lat="43.91701" lon="5.18355">
        <ele>365.92</ele>
        <time>2018-02-19T13:50:34Z</time>
      </trkpt>
      <trkpt lat="43.9169" lon="5.18353">
        <ele>366.4</ele>
        <time>2018-02-19T13:50:50Z</time>
      </trkpt>
      <trkpt lat="43.91678" lon="5.18352">
        <ele>367.84</ele>
        <time>2018-02-19T13:51:05Z</time>
      </trkpt>
      <trkpt lat="43.91673" lon="5.18353">
        <ele>369.28</ele>
        <time>2018-02-19T13:51:18Z</time>
      </trkpt>
      <trkpt lat="43.91676" lon="5.18361">
        <ele>371.69</ele>
        <time>2018-02-19T13:51:36Z</time>
      </trkpt>
      <trkpt lat="43.91671" lon="5.18361">
        <ele>374.09</ele>
        <time>2018-02-19T13:51:52Z</time>
      </trkpt>
      <trkpt lat="43.91672" lon="5.18365">
        <ele>375.53</ele>
        <time>2018-02-19T13:52:09Z</time>
      </trkpt>
      <trkpt lat="43.91676" lon="5.18371">
        <ele>376.97</ele>
        <time>2018-02-19T13:52:24Z</time>
      </trkpt>
      <trkpt lat="43.91673" lon="5.18373">
        <ele>378.9</ele>
        <time>2018-02-19T13:52:37Z</time>
      </trkpt>
      <trkpt lat="43.91671" lon="5.18376">
        <ele>379.86</ele>
        <time>2018-02-19T13:52:51Z</time>
      </trkpt>
      <trkpt lat="43.91667" lon="5.18373">
        <ele>381.78</ele>
        <time>2018-02-19T13:53:05Z</time>
      </trkpt>
      <trkpt lat="43.9167" lon="5.18379">
        <ele>383.22</ele>
        <time>2018-02-19T13:53:19Z</time>
      </trkpt>
      <trkpt lat="43.91667" lon="5.18383">
        <ele>384.18</ele>
        <time>2018-02-19T13:53:34Z</time>
      </trkpt>
      <trkpt lat="43.91667" lon="5.18384">
        <ele>385.63</ele>
        <time>2018-02-19T13:53:52Z</time>
      </trkpt>
      <trkpt lat="43.91665" lon="5.18385">
        <ele>383.7</ele>
        <time>2018-02-19T13:54:04Z</time>
      </trkpt>
      <trkpt lat="43.91663" lon="5.1839">
        <ele>385.15</ele>
        <time>2018-02-19T13:54:22Z</time>
      </trkpt>
      <trkpt lat="43.91663" lon="5.1839">
        <ele>385.15</ele>
        <time>2018-02-19T13:54:36Z</time>
      </trkpt>
      <trkpt lat="43.91665" lon="5.18382">
        <ele>385.15</ele>
        <time>2018-02-19T13:54:50Z</time>
      </trkpt>
      <trkpt lat="43.91664" lon="5.1839">
        <ele>385.15</ele>
        <time>2018-02-19T13:55:23Z</time>
      </trkpt>
      <trkpt lat="43.91667" lon="5.18405">
        <ele>385.63</ele>
        <time>2018-02-19T13:55:37Z</time>
      </trkpt>
      <trkpt lat="43.91667" lon="5.18406">
        <ele>386.11</ele>
        <time>2018-02-19T13:55:38Z</time>
      </trkpt>
      <trkpt lat="43.91673" lon="5.18419">
        <ele>386.11</ele>
        <time>2018-02-19T13:55:50Z</time>
      </trkpt>
      <trkpt lat="43.91676" lon="5.18427">
        <ele>387.55</ele>
        <time>2018-02-19T13:55:59Z</time>
      </trkpt>
      <trkpt lat="43.91679" lon="5.1844">
        <ele>388.03</ele>
        <time>2018-02-19T13:56:14Z</time>
      </trkpt>
      <trkpt lat="43.91682" lon="5.18453">
        <ele>388.03</ele>
        <time>2018-02-19T13:56:23Z</time>
      </trkpt>
      <trkpt lat="43.9169" lon="5.1848">
        <ele>388.03</ele>
        <time>2018-02-19T13:56:43Z</time>
      </trkpt>
      <trkpt lat="43.91704" lon="5.18501">
        <ele>388.03</ele>
        <time>2018-02-19T13:57:02Z</time>
      </trkpt>
      <trkpt lat="43.91716" lon="5.18527">
        <ele>388.99</ele>
        <time>2018-02-19T13:57:23Z</time>
      </trkpt>
      <trkpt lat="43.91725" lon="5.18551">
        <ele>389.47</ele>
        <time>2018-02-19T13:57:43Z</time>
      </trkpt>
      <trkpt lat="43.91735" lon="5.18576">
        <ele>389.95</ele>
        <time>2018-02-19T13:58:03Z</time>
      </trkpt>
      <trkpt lat="43.91747" lon="5.18597">
        <ele>391.87</ele>
        <time>2018-02-19T13:58:23Z</time>
      </trkpt>
      <trkpt lat="43.91754" lon="5.18623">
        <ele>392.84</ele>
        <time>2018-02-19T13:58:43Z</time>
      </trkpt>
      <trkpt lat="43.91754" lon="5.18629">
        <ele>392.84</ele>
        <time>2018-02-19T13:58:47Z</time>
      </trkpt>
      <trkpt lat="43.91749" lon="5.18644">
        <ele>392.84</ele>
        <time>2018-02-19T13:58:58Z</time>
      </trkpt>
      <trkpt lat="43.91734" lon="5.18662">
        <ele>392.84</ele>
        <time>2018-02-19T13:59:15Z</time>
      </trkpt>
      <trkpt lat="43.9173" lon="5.18687">
        <ele>392.84</ele>
        <time>2018-02-19T13:59:32Z</time>
      </trkpt>
      <trkpt lat="43.91732" lon="5.18719">
        <ele>391.87</ele>
        <time>2018-02-19T13:59:53Z</time>
      </trkpt>
      <trkpt lat="43.91736" lon="5.18744">
        <ele>391.87</ele>
        <time>2018-02-19T14:00:11Z</time>
      </trkpt>
      <trkpt lat="43.91735" lon="5.18751">
        <ele>391.39</ele>
        <time>2018-02-19T14:00:16Z</time>
      </trkpt>
      <trkpt lat="43.91721" lon="5.18772">
        <ele>389.47</ele>
        <time>2018-02-19T14:00:38Z</time>
      </trkpt>
      <trkpt lat="43.91718" lon="5.18774">
        <ele>389.47</ele>
        <time>2018-02-19T14:00:59Z</time>
      </trkpt>
      <trkpt lat="43.91714" lon="5.18782">
        <ele>388.99</ele>
        <time>2018-02-19T14:01:14Z</time>
      </trkpt>
      <trkpt lat="43.91706" lon="5.18799">
        <ele>388.51</ele>
        <time>2018-02-19T14:01:35Z</time>
      </trkpt>
      <trkpt lat="43.91693" lon="5.18809">
        <ele>387.07</ele>
        <time>2018-02-19T14:01:52Z</time>
      </trkpt>
      <trkpt lat="43.91681" lon="5.18819">
        <ele>385.63</ele>
        <time>2018-02-19T14:02:08Z</time>
      </trkpt>
      <trkpt lat="43.9166" lon="5.18829">
        <ele>382.74</ele>
        <time>2018-02-19T14:02:29Z</time>
      </trkpt>
      <trkpt lat="43.91642" lon="5.18836">
        <ele>381.78</ele>
        <time>2018-02-19T14:02:48Z</time>
      </trkpt>
      <trkpt lat="43.91638" lon="5.18849">
        <ele>381.3</ele>
        <time>2018-02-19T14:03:08Z</time>
      </trkpt>
      <trkpt lat="43.91637" lon="5.18852">
        <ele>381.3</ele>
        <time>2018-02-19T14:03:21Z</time>
      </trkpt>
      <trkpt lat="43.91636" lon="5.18852">
        <ele>381.3</ele>
        <time>2018-02-19T14:03:42Z</time>
      </trkpt>
      <trkpt lat="43.91636" lon="5.1885">
        <ele>381.3</ele>
        <time>2018-02-19T14:04:13Z</time>
      </trkpt>
      <trkpt lat="43.91634" lon="5.1885">
        <ele>381.3</ele>
        <time>2018-02-19T14:04:34Z</time>
      </trkpt>
      <trkpt lat="43.91635" lon="5.18852">
        <ele>381.3</ele>
        <time>2018-02-19T14:05:04Z</time>
      </trkpt>
      <trkpt lat="43.91634" lon="5.18853">
        <ele>381.3</ele>
        <time>2018-02-19T14:05:36Z</time>
      </trkpt>
      <trkpt lat="43.91639" lon="5.1886">
        <ele>381.3</ele>
        <time>2018-02-19T14:05:57Z</time>
      </trkpt>
      <trkpt lat="43.91639" lon="5.18861">
        <ele>381.3</ele>
        <time>2018-02-19T14:05:58Z</time>
      </trkpt>
      <trkpt lat="43.91652" lon="5.18883">
        <ele>380.34</ele>
        <time>2018-02-19T14:06:19Z</time>
      </trkpt>
      <trkpt lat="43.91662" lon="5.18886">
        <ele>380.34</ele>
        <time>2018-02-19T14:06:35Z</time>
      </trkpt>
      <trkpt lat="43.91674" lon="5.18894">
        <ele>378.9</ele>
        <time>2018-02-19T14:06:53Z</time>
      </trkpt>
      <trkpt lat="43.91685" lon="5.18915">
        <ele>377.94</ele>
        <time>2018-02-19T14:07:12Z</time>
      </trkpt>
      <trkpt lat="43.91699" lon="5.18939">
        <ele>376.49</ele>
        <time>2018-02-19T14:07:33Z</time>
      </trkpt>
      <trkpt lat="43.91701" lon="5.18945">
        <ele>376.01</ele>
        <time>2018-02-19T14:07:38Z</time>
      </trkpt>
      <trkpt lat="43.91702" lon="5.18965">
        <ele>375.05</ele>
        <time>2018-02-19T14:07:51Z</time>
      </trkpt>
      <trkpt lat="43.91692" lon="5.19001">
        <ele>374.09</ele>
        <time>2018-02-19T14:08:17Z</time>
      </trkpt>
      <trkpt lat="43.91692" lon="5.1903">
        <ele>373.61</ele>
        <time>2018-02-19T14:08:36Z</time>
      </trkpt>
      <trkpt lat="43.91691" lon="5.19062">
        <ele>373.13</ele>
        <time>2018-02-19T14:08:56Z</time>
      </trkpt>
      <trkpt lat="43.91689" lon="5.1909">
        <ele>372.65</ele>
        <time>2018-02-19T14:09:14Z</time>
      </trkpt>
      <trkpt lat="43.91682" lon="5.1912">
        <ele>372.17</ele>
        <time>2018-02-19T14:09:36Z</time>
      </trkpt>
      <trkpt lat="43.91672" lon="5.1914">
        <ele>372.17</ele>
        <time>2018-02-19T14:09:53Z</time>
      </trkpt>
      <trkpt lat="43.91657" lon="5.19161">
        <ele>372.17</ele>
        <time>2018-02-19T14:10:14Z</time>
      </trkpt>
      <trkpt lat="43.91646" lon="5.19183">
        <ele>372.17</ele>
        <time>2018-02-19T14:10:32Z</time>
      </trkpt>
      <trkpt lat="43.91632" lon="5.19208">
        <ele>373.61</ele>
        <time>2018-02-19T14:10:52Z</time>
      </trkpt>
      <trkpt lat="43.91624" lon="5.19231">
        <ele>375.53</ele>
        <time>2018-02-19T14:11:11Z</time>
      </trkpt>
      <trkpt lat="43.91614" lon="5.19257">
        <ele>375.05</ele>
        <time>2018-02-19T14:11:31Z</time>
      </trkpt>
      <trkpt lat="43.91618" lon="5.19282">
        <ele>375.05</ele>
        <time>2018-02-19T14:11:47Z</time>
      </trkpt>
      <trkpt lat="43.91618" lon="5.19283">
        <ele>375.05</ele>
        <time>2018-02-19T14:11:48Z</time>
      </trkpt>
      <trkpt lat="43.91621" lon="5.19314">
        <ele>375.05</ele>
        <time>2018-02-19T14:12:10Z</time>
      </trkpt>
      <trkpt lat="43.91623" lon="5.19341">
        <ele>372.17</ele>
        <time>2018-02-19T14:12:29Z</time>
      </trkpt>
      <trkpt lat="43.91624" lon="5.19345">
        <ele>372.17</ele>
        <time>2018-02-19T14:12:32Z</time>
      </trkpt>
      <trkpt lat="43.91638" lon="5.1937">
        <ele>369.76</ele>
        <time>2018-02-19T14:12:55Z</time>
      </trkpt>
      <trkpt lat="43.91655" lon="5.19394">
        <ele>369.28</ele>
        <time>2018-02-19T14:13:18Z</time>
      </trkpt>
      <trkpt lat="43.91669" lon="5.19413">
        <ele>367.84</ele>
        <time>2018-02-19T14:13:39Z</time>
      </trkpt>
      <trkpt lat="43.91672" lon="5.19416">
        <ele>367.36</ele>
        <time>2018-02-19T14:13:58Z</time>
      </trkpt>
      <trkpt lat="43.91675" lon="5.19429">
        <ele>366.88</ele>
        <time>2018-02-19T14:14:13Z</time>
      </trkpt>
      <trkpt lat="43.91667" lon="5.19443">
        <ele>365.44</ele>
        <time>2018-02-19T14:14:26Z</time>
      </trkpt>
      <trkpt lat="43.9166" lon="5.19453">
        <ele>364.96</ele>
        <time>2018-02-19T14:14:36Z</time>
      </trkpt>
      <trkpt lat="43.91637" lon="5.19464">
        <ele>364.48</ele>
        <time>2018-02-19T14:14:57Z</time>
      </trkpt>
      <trkpt lat="43.91619" lon="5.19466">
        <ele>364.48</ele>
        <time>2018-02-19T14:15:15Z</time>
      </trkpt>
      <trkpt lat="43.91602" lon="5.1947">
        <ele>365.92</ele>
        <time>2018-02-19T14:15:31Z</time>
      </trkpt>
      <trkpt lat="43.91583" lon="5.19472">
        <ele>366.88</ele>
        <time>2018-02-19T14:15:50Z</time>
      </trkpt>
      <trkpt lat="43.91561" lon="5.19471">
        <ele>365.44</ele>
        <time>2018-02-19T14:16:11Z</time>
      </trkpt>
      <trkpt lat="43.91536" lon="5.19472">
        <ele>364.96</ele>
        <time>2018-02-19T14:16:34Z</time>
      </trkpt>
      <trkpt lat="43.91519" lon="5.19477">
        <ele>364.96</ele>
        <time>2018-02-19T14:16:51Z</time>
      </trkpt>
      <trkpt lat="43.91499" lon="5.19485">
        <ele>364.48</ele>
        <time>2018-02-19T14:17:12Z</time>
      </trkpt>
      <trkpt lat="43.91478" lon="5.19493">
        <ele>364.48</ele>
        <time>2018-02-19T14:17:33Z</time>
      </trkpt>
      <trkpt lat="43.91459" lon="5.19503">
        <ele>364</ele>
        <time>2018-02-19T14:17:52Z</time>
      </trkpt>
      <trkpt lat="43.91439" lon="5.19518">
        <ele>363.52</ele>
        <time>2018-02-19T14:18:14Z</time>
      </trkpt>
      <trkpt lat="43.91426" lon="5.19531">
        <ele>363.04</ele>
        <time>2018-02-19T14:18:31Z</time>
      </trkpt>
      <trkpt lat="43.91424" lon="5.19535">
        <ele>362.55</ele>
        <time>2018-02-19T14:18:34Z</time>
      </trkpt>
      <trkpt lat="43.91415" lon="5.19554">
        <ele>361.59</ele>
        <time>2018-02-19T14:18:52Z</time>
      </trkpt>
      <trkpt lat="43.91411" lon="5.19563">
        <ele>361.11</ele>
        <time>2018-02-19T14:19:06Z</time>
      </trkpt>
      <trkpt lat="43.9141" lon="5.19564">
        <ele>361.11</ele>
        <time>2018-02-19T14:19:29Z</time>
      </trkpt>
    </trkseg>
  </trk>
</gpx>